<?xml version="1.0" encoding="UTF-8"?>
<gpx version="1.1" creator="2bulu-scraper" xmlns="http://www.topografix.com/GPX/1/1">
  <metadata><name>大瓦山+四方洞</name><desc>source: 2bulu.com trackId=83854375; exported 2026-09-01T16:09:08.000Z</desc>
    <bounds minlat="29.3428892" minlon="103.0095286" maxlat="29.36943" maxlon="103.0247716"/>
    <link href="https://www.2bulu.com/track/t-jKSpSgGw4lfp%252FR2KBg5Tzw%253D%253D.htm"><text>2bulu 源页面</text></link>
  </metadata>
  <wpt lat="29.3687043" lon="103.0233076"><ele>2009</ele><name>
        </name></wpt>
  <wpt lat="29.3682538" lon="103.021806"><ele>2063</ele><name>
        </name></wpt>
  <wpt lat="29.366754" lon="103.0159591"><ele>2399</ele><name>
        </name></wpt>
  <wpt lat="29.3651" lon="103.0169756"><ele>2409</ele><name>
        </name></wpt>
  <wpt lat="29.3644379" lon="103.0177161"><ele>2425</ele><name>
        </name></wpt>
  <wpt lat="29.3638406" lon="103.0190575"><ele>2433</ele><name>
        </name></wpt>
  <wpt lat="29.3616448" lon="103.0193696"><ele>2455</ele><name>
        </name></wpt>
  <wpt lat="29.358285" lon="103.0184517"><ele>2774</ele><name>
        </name></wpt>
  <wpt lat="29.357105" lon="103.0188167"><ele>2897</ele><name>
        </name></wpt>
  <wpt lat="29.3549338" lon="103.0202804"><ele>2966</ele><name>
        </name></wpt>
  <wpt lat="29.3544674" lon="103.0202253"><ele>2983</ele><name>
        </name></wpt>
  <wpt lat="29.3542917" lon="103.0202383"><ele>2985</ele><name>
        </name></wpt>
  <wpt lat="29.3538431" lon="103.0199902"><ele>3003</ele><name>
        </name></wpt>
  <wpt lat="29.3534298" lon="103.0196732"><ele>3031</ele><name>
        </name></wpt>
  <wpt lat="29.3533217" lon="103.0195033"><ele>3045</ele><name>
        </name></wpt>
  <wpt lat="29.3528092" lon="103.019247"><ele>3100</ele><name>
        </name></wpt>
  <wpt lat="29.3517959" lon="103.0196848"><ele>3168</ele><name>
        </name></wpt>
  <wpt lat="29.3501864" lon="103.0216323"><ele>3165</ele><name>
        </name></wpt>
  <wpt lat="29.3430094" lon="103.0247622"><ele>3161</ele><name>
        </name></wpt>
  <wpt lat="29.3607969" lon="103.0161439"><ele>2454</ele><name>
        </name></wpt>
  <wpt lat="29.3602617" lon="103.01545"><ele>2443</ele><name>太荒了，走下面
        </name></wpt>
  <wpt lat="29.3602141" lon="103.0133425"><ele>2356</ele><name>
        </name></wpt>
  <wpt lat="29.3607325" lon="103.0115392"><ele>2393</ele><name>
        </name></wpt>
  <wpt lat="29.3598616" lon="103.0102713"><ele>2403</ele><name>
        </name></wpt>
  <wpt lat="29.3592904" lon="103.0099624"><ele>2400</ele><name>
        </name></wpt>
  <wpt lat="29.3594239" lon="103.0097815"><ele>2382</ele><name>
        </name></wpt>
  <wpt lat="29.3601594" lon="103.0133805"><ele>2383</ele><name>
        </name></wpt>
  <wpt lat="29.3605103" lon="103.0160455"><ele>2451</ele><name>终于出来了
        </name></wpt>
  <trk><name>大瓦山+四方洞</name>
      <trkseg>
        <trkpt lat="29.36943" lon="103.0228817"><ele>2015.4</ele><time>2026-05-07T17:27:29.000Z</time></trkpt>
        <trkpt lat="29.3693333" lon="103.022905"><ele>2015.4</ele><time>2026-05-07T17:27:35.000Z</time></trkpt>
        <trkpt lat="29.369231" lon="103.022965"><ele>2015.4</ele><time>2026-05-07T17:27:45.000Z</time></trkpt>
        <trkpt lat="29.3691251" lon="103.0230109"><ele>2015.49</ele><time>2026-05-07T17:27:51.000Z</time></trkpt>
        <trkpt lat="29.3690307" lon="103.0230601"><ele>2015.49</ele><time>2026-05-07T17:27:57.000Z</time></trkpt>
        <trkpt lat="29.3689455" lon="103.0231155"><ele>2015.11</ele><time>2026-05-07T17:28:03.000Z</time></trkpt>
        <trkpt lat="29.3688583" lon="103.0231791"><ele>2013.86</ele><time>2026-05-07T17:28:09.000Z</time></trkpt>
        <trkpt lat="29.3687846" lon="103.0232515"><ele>2012.63</ele><time>2026-05-07T17:28:17.000Z</time></trkpt>
        <trkpt lat="29.3687043" lon="103.0233076"><ele>2011.45</ele><time>2026-05-07T17:28:27.000Z</time></trkpt>
        <trkpt lat="29.3686132" lon="103.0233132"><ele>2010.27</ele><time>2026-05-07T17:29:01.000Z</time></trkpt>
        <trkpt lat="29.3685306" lon="103.0232655"><ele>2010.24</ele><time>2026-05-07T17:29:11.000Z</time></trkpt>
        <trkpt lat="29.3684628" lon="103.0231727"><ele>2010.65</ele><time>2026-05-07T17:29:23.000Z</time></trkpt>
        <trkpt lat="29.3684216" lon="103.0230642"><ele>2011.75</ele><time>2026-05-07T17:29:35.000Z</time></trkpt>
        <trkpt lat="29.3683855" lon="103.0229547"><ele>2014.14</ele><time>2026-05-07T17:29:49.000Z</time></trkpt>
        <trkpt lat="29.3683767" lon="103.0228383"><ele>2017.61</ele><time>2026-05-07T17:30:13.000Z</time></trkpt>
        <trkpt lat="29.3683454" lon="103.0227388"><ele>2021.47</ele><time>2026-05-07T17:30:33.000Z</time></trkpt>
        <trkpt lat="29.3683062" lon="103.0226419"><ele>2024.88</ele><time>2026-05-07T17:30:51.000Z</time></trkpt>
        <trkpt lat="29.3682554" lon="103.0225431"><ele>2028.33</ele><time>2026-05-07T17:31:11.000Z</time></trkpt>
        <trkpt lat="29.3682158" lon="103.022441"><ele>2031.8</ele><time>2026-05-07T17:31:35.000Z</time></trkpt>
        <trkpt lat="29.3682075" lon="103.0223301"><ele>2035.89</ele><time>2026-05-07T17:31:55.000Z</time></trkpt>
        <trkpt lat="29.3682043" lon="103.0222212"><ele>2039.68</ele><time>2026-05-07T17:32:15.000Z</time></trkpt>
        <trkpt lat="29.368196" lon="103.0221123"><ele>2043</ele><time>2026-05-07T17:32:35.000Z</time></trkpt>
        <trkpt lat="29.3682136" lon="103.0220061"><ele>2046.61</ele><time>2026-05-07T17:32:55.000Z</time></trkpt>
        <trkpt lat="29.3682514" lon="103.0219073"><ele>2050.18</ele><time>2026-05-07T17:33:23.000Z</time></trkpt>
        <trkpt lat="29.3682538" lon="103.021806"><ele>2053.63</ele><time>2026-05-07T17:33:51.000Z</time></trkpt>
        <trkpt lat="29.3682538" lon="103.021806"><ele>2053.63</ele><time>2026-05-07T17:34:27.000Z</time></trkpt>
        <trkpt lat="29.368275" lon="103.0217072"><ele>2057.44</ele><time>2026-05-07T17:34:28.000Z</time></trkpt>
        <trkpt lat="29.368275" lon="103.0217072"><ele>2057.44</ele><time>2026-05-07T17:34:47.000Z</time></trkpt>
        <trkpt lat="29.3682802" lon="103.0216041"><ele>2062.8</ele><time>2026-05-07T17:35:11.000Z</time></trkpt>
        <trkpt lat="29.3682627" lon="103.0215031"><ele>2067.45</ele><time>2026-05-07T17:35:45.000Z</time></trkpt>
        <trkpt lat="29.3683183" lon="103.02141"><ele>2072.16</ele><time>2026-05-07T17:36:51.000Z</time></trkpt>
        <trkpt lat="29.368275" lon="103.021315"><ele>2076.56</ele><time>2026-05-07T17:37:07.000Z</time></trkpt>
        <trkpt lat="29.3682627" lon="103.0212115"><ele>2079.38</ele><time>2026-05-07T17:37:33.000Z</time></trkpt>
        <trkpt lat="29.3681941" lon="103.0211593"><ele>2082.44</ele><time>2026-05-07T17:37:51.000Z</time></trkpt>
        <trkpt lat="29.3681094" lon="103.0210804"><ele>2085.52</ele><time>2026-05-07T17:38:39.000Z</time></trkpt>
        <trkpt lat="29.3680539" lon="103.0209731"><ele>2089.6</ele><time>2026-05-07T17:39:09.000Z</time></trkpt>
        <trkpt lat="29.3680035" lon="103.0208014"><ele>2093.81</ele><time>2026-05-07T17:40:07.000Z</time></trkpt>
        <trkpt lat="29.3679633" lon="103.0206756"><ele>2100.43</ele><time>2026-05-07T17:40:35.000Z</time></trkpt>
        <trkpt lat="29.3679075" lon="103.020582"><ele>2106.23</ele><time>2026-05-07T17:41:03.000Z</time></trkpt>
        <trkpt lat="29.3678326" lon="103.0205139"><ele>2111.81</ele><time>2026-05-07T17:41:29.000Z</time></trkpt>
        <trkpt lat="29.3677212" lon="103.0204207"><ele>2117.52</ele><time>2026-05-07T17:42:07.000Z</time></trkpt>
        <trkpt lat="29.3676264" lon="103.0203597"><ele>2123.67</ele><time>2026-05-07T17:42:39.000Z</time></trkpt>
        <trkpt lat="29.3675416" lon="103.0202943"><ele>2128.89</ele><time>2026-05-07T17:43:07.000Z</time></trkpt>
        <trkpt lat="29.3675036" lon="103.0202031"><ele>2133.67</ele><time>2026-05-07T17:43:35.000Z</time></trkpt>
        <trkpt lat="29.3675036" lon="103.0202031"><ele>2133.67</ele><time>2026-05-07T17:43:55.000Z</time></trkpt>
        <trkpt lat="29.3674" lon="103.02017"><ele>2138.37</ele><time>2026-05-07T17:46:42.000Z</time></trkpt>
        <trkpt lat="29.3674" lon="103.02017"><ele>2138.37</ele><time>2026-05-07T17:46:47.000Z</time></trkpt>
        <trkpt lat="29.3673733" lon="103.02006"><ele>2146.68</ele><time>2026-05-07T17:47:07.000Z</time></trkpt>
        <trkpt lat="29.3673733" lon="103.02006"><ele>2146.68</ele><time>2026-05-07T17:47:48.000Z</time></trkpt>
        <trkpt lat="29.3672459" lon="103.0198656"><ele>2150.73</ele><time>2026-05-07T17:47:50.000Z</time></trkpt>
        <trkpt lat="29.3672459" lon="103.0198656"><ele>2150.73</ele><time>2026-05-07T17:48:11.000Z</time></trkpt>
        <trkpt lat="29.3672459" lon="103.0198656"><ele>2150.73</ele><time>2026-05-07T17:48:44.000Z</time></trkpt>
        <trkpt lat="29.3671438" lon="103.0196989"><ele>2154.46</ele><time>2026-05-07T17:48:50.000Z</time></trkpt>
        <trkpt lat="29.3671438" lon="103.0196989"><ele>2154.46</ele><time>2026-05-07T17:49:07.000Z</time></trkpt>
        <trkpt lat="29.3670886" lon="103.0195836"><ele>2159.25</ele><time>2026-05-07T17:49:45.000Z</time></trkpt>
        <trkpt lat="29.3670053" lon="103.0195268"><ele>2164.87</ele><time>2026-05-07T17:50:19.000Z</time></trkpt>
        <trkpt lat="29.3669797" lon="103.0194391"><ele>2170.69</ele><time>2026-05-07T17:50:51.000Z</time></trkpt>
        <trkpt lat="29.3669569" lon="103.0193413"><ele>2175.98</ele><time>2026-05-07T17:51:09.000Z</time></trkpt>
        <trkpt lat="29.3669403" lon="103.0192339"><ele>2179.91</ele><time>2026-05-07T17:51:35.000Z</time></trkpt>
        <trkpt lat="29.3668946" lon="103.0191452"><ele>2183.73</ele><time>2026-05-07T17:52:05.000Z</time></trkpt>
        <trkpt lat="29.3668946" lon="103.0191452"><ele>2183.73</ele><time>2026-05-07T17:52:34.000Z</time></trkpt>
        <trkpt lat="29.3668946" lon="103.0191452"><ele>2183.73</ele><time>2026-05-07T17:52:54.000Z</time></trkpt>
        <trkpt lat="29.3668946" lon="103.0191452"><ele>2183.73</ele><time>2026-05-07T17:53:28.000Z</time></trkpt>
        <trkpt lat="29.3668531" lon="103.0188043"><ele>2187.12</ele><time>2026-05-07T17:53:34.000Z</time></trkpt>
        <trkpt lat="29.3668531" lon="103.0188043"><ele>2187.12</ele><time>2026-05-07T17:54:11.000Z</time></trkpt>
        <trkpt lat="29.3668531" lon="103.0188043"><ele>2187.12</ele><time>2026-05-07T17:54:54.000Z</time></trkpt>
        <trkpt lat="29.3667364" lon="103.0185381"><ele>2196.96</ele><time>2026-05-07T17:54:56.000Z</time></trkpt>
        <trkpt lat="29.3667364" lon="103.0185381"><ele>2196.96</ele><time>2026-05-07T17:55:39.000Z</time></trkpt>
        <trkpt lat="29.3667364" lon="103.0185381"><ele>2196.96</ele><time>2026-05-07T17:56:42.000Z</time></trkpt>
        <trkpt lat="29.3666867" lon="103.01829"><ele>2206.78</ele><time>2026-05-07T17:57:14.000Z</time></trkpt>
        <trkpt lat="29.3666867" lon="103.01829"><ele>2206.78</ele><time>2026-05-07T17:57:29.000Z</time></trkpt>
        <trkpt lat="29.3666285" lon="103.0182094"><ele>2217.72</ele><time>2026-05-07T17:58:11.000Z</time></trkpt>
        <trkpt lat="29.3666135" lon="103.0181065"><ele>2225.32</ele><time>2026-05-07T17:58:51.000Z</time></trkpt>
        <trkpt lat="29.3666309" lon="103.0180031"><ele>2231.89</ele><time>2026-05-07T17:59:25.000Z</time></trkpt>
        <trkpt lat="29.3666225" lon="103.0178937"><ele>2237.4</ele><time>2026-05-07T18:00:01.000Z</time></trkpt>
        <trkpt lat="29.3665856" lon="103.0177838"><ele>2244.67</ele><time>2026-05-07T18:00:43.000Z</time></trkpt>
        <trkpt lat="29.3665856" lon="103.0177838"><ele>2244.67</ele><time>2026-05-07T18:01:36.000Z</time></trkpt>
        <trkpt lat="29.3665067" lon="103.01756"><ele>2251.95</ele><time>2026-05-07T18:01:52.000Z</time></trkpt>
        <trkpt lat="29.3665067" lon="103.01756"><ele>2251.95</ele><time>2026-05-07T18:02:39.000Z</time></trkpt>
        <trkpt lat="29.3665067" lon="103.01756"><ele>2251.95</ele><time>2026-05-07T18:03:38.000Z</time></trkpt>
        <trkpt lat="29.3665067" lon="103.01756"><ele>2251.95</ele><time>2026-05-07T18:03:58.000Z</time></trkpt>
        <trkpt lat="29.3665067" lon="103.01756"><ele>2251.95</ele><time>2026-05-07T18:04:30.000Z</time></trkpt>
        <trkpt lat="29.3665067" lon="103.01756"><ele>2251.95</ele><time>2026-05-07T18:04:38.000Z</time></trkpt>
        <trkpt lat="29.3665067" lon="103.01756"><ele>2251.95</ele><time>2026-05-07T18:05:18.000Z</time></trkpt>
        <trkpt lat="29.3666433" lon="103.01699"><ele>2263.54</ele><time>2026-05-07T18:05:50.000Z</time></trkpt>
        <trkpt lat="29.3666433" lon="103.01699"><ele>2263.54</ele><time>2026-05-07T18:06:33.000Z</time></trkpt>
        <trkpt lat="29.3666433" lon="103.01699"><ele>2263.54</ele><time>2026-05-07T18:07:14.000Z</time></trkpt>
        <trkpt lat="29.3666221" lon="103.0168887"><ele>2285.98</ele><time>2026-05-07T18:07:28.000Z</time></trkpt>
        <trkpt lat="29.3666221" lon="103.0168887"><ele>2285.98</ele><time>2026-05-07T18:07:29.000Z</time></trkpt>
        <trkpt lat="29.3666842" lon="103.0167598"><ele>2299.93</ele><time>2026-05-07T18:08:27.000Z</time></trkpt>
        <trkpt lat="29.3667998" lon="103.0166913"><ele>2311.83</ele><time>2026-05-07T18:09:09.000Z</time></trkpt>
        <trkpt lat="29.3667998" lon="103.0166913"><ele>2311.83</ele><time>2026-05-07T18:09:42.000Z</time></trkpt>
        <trkpt lat="29.3670067" lon="103.0164883"><ele>2322.1</ele><time>2026-05-07T18:10:26.000Z</time></trkpt>
        <trkpt lat="29.3670067" lon="103.0164883"><ele>2322.1</ele><time>2026-05-07T18:11:05.000Z</time></trkpt>
        <trkpt lat="29.3670288" lon="103.0163806"><ele>2335.61</ele><time>2026-05-07T18:11:39.000Z</time></trkpt>
        <trkpt lat="29.3670288" lon="103.0163806"><ele>2335.61</ele><time>2026-05-07T18:12:24.000Z</time></trkpt>
        <trkpt lat="29.3670288" lon="103.0163806"><ele>2335.61</ele><time>2026-05-07T18:12:28.000Z</time></trkpt>
        <trkpt lat="29.3670288" lon="103.0163806"><ele>2335.61</ele><time>2026-05-07T18:13:08.000Z</time></trkpt>
        <trkpt lat="29.3670288" lon="103.0163806"><ele>2335.61</ele><time>2026-05-07T18:16:04.000Z</time></trkpt>
        <trkpt lat="29.3670288" lon="103.0163806"><ele>2335.61</ele><time>2026-05-07T18:16:42.000Z</time></trkpt>
        <trkpt lat="29.3670288" lon="103.0163806"><ele>2335.61</ele><time>2026-05-07T18:16:50.000Z</time></trkpt>
        <trkpt lat="29.3670288" lon="103.0163806"><ele>2335.61</ele><time>2026-05-07T18:17:36.000Z</time></trkpt>
        <trkpt lat="29.3670617" lon="103.0159467"><ele>2345.24</ele><time>2026-05-07T18:18:00.000Z</time></trkpt>
        <trkpt lat="29.3670617" lon="103.0159467"><ele>2345.24</ele><time>2026-05-07T18:18:07.000Z</time></trkpt>
        <trkpt lat="29.3669683" lon="103.01594"><ele>2367.55</ele><time>2026-05-07T18:18:17.000Z</time></trkpt>
        <trkpt lat="29.3668623" lon="103.0159559"><ele>2380.73</ele><time>2026-05-07T18:18:27.000Z</time></trkpt>
        <trkpt lat="29.366754" lon="103.0159591"><ele>2388.72</ele><time>2026-05-07T18:18:39.000Z</time></trkpt>
        <trkpt lat="29.366655" lon="103.0159634"><ele>2393.14</ele><time>2026-05-07T18:19:05.000Z</time></trkpt>
        <trkpt lat="29.3665671" lon="103.0159044"><ele>2395.66</ele><time>2026-05-07T18:19:15.000Z</time></trkpt>
        <trkpt lat="29.3664717" lon="103.0158685"><ele>2397.14</ele><time>2026-05-07T18:19:25.000Z</time></trkpt>
        <trkpt lat="29.3663653" lon="103.0158834"><ele>2397.51</ele><time>2026-05-07T18:19:35.000Z</time></trkpt>
        <trkpt lat="29.3662637" lon="103.0159299"><ele>2397.63</ele><time>2026-05-07T18:19:43.000Z</time></trkpt>
        <trkpt lat="29.366192" lon="103.0160056"><ele>2397.4</ele><time>2026-05-07T18:19:51.000Z</time></trkpt>
        <trkpt lat="29.3661237" lon="103.0160801"><ele>2397.7</ele><time>2026-05-07T18:20:01.000Z</time></trkpt>
        <trkpt lat="29.3660526" lon="103.0161472"><ele>2399.12</ele><time>2026-05-07T18:20:35.000Z</time></trkpt>
        <trkpt lat="29.3659732" lon="103.0162099"><ele>2399.63</ele><time>2026-05-07T18:20:45.000Z</time></trkpt>
        <trkpt lat="29.365884" lon="103.0162293"><ele>2400.39</ele><time>2026-05-07T18:20:55.000Z</time></trkpt>
        <trkpt lat="29.3657853" lon="103.0162591"><ele>2401.21</ele><time>2026-05-07T18:21:05.000Z</time></trkpt>
        <trkpt lat="29.3657176" lon="103.0163302"><ele>2401.29</ele><time>2026-05-07T18:21:19.000Z</time></trkpt>
        <trkpt lat="29.3656482" lon="103.0164058"><ele>2401.94</ele><time>2026-05-07T18:21:35.000Z</time></trkpt>
        <trkpt lat="29.3655596" lon="103.0164535"><ele>2404.12</ele><time>2026-05-07T18:21:55.000Z</time></trkpt>
        <trkpt lat="29.3654708" lon="103.0164999"><ele>2405.83</ele><time>2026-05-07T18:22:09.000Z</time></trkpt>
        <trkpt lat="29.3653752" lon="103.0165491"><ele>2407.19</ele><time>2026-05-07T18:22:19.000Z</time></trkpt>
        <trkpt lat="29.3652964" lon="103.0166312"><ele>2408.06</ele><time>2026-05-07T18:22:31.000Z</time></trkpt>
        <trkpt lat="29.3652242" lon="103.0167154"><ele>2408.81</ele><time>2026-05-07T18:22:41.000Z</time></trkpt>
        <trkpt lat="29.3651501" lon="103.0168037"><ele>2408.85</ele><time>2026-05-07T18:22:51.000Z</time></trkpt>
        <trkpt lat="29.3651059" lon="103.0169099"><ele>2408.87</ele><time>2026-05-07T18:23:01.000Z</time></trkpt>
        <trkpt lat="29.3651" lon="103.0169756"><ele>2408.84</ele><time>2026-05-07T18:23:13.000Z</time></trkpt>
        <trkpt lat="29.3650486" lon="103.0170389"><ele>2408.99</ele><time>2026-05-07T18:23:29.000Z</time></trkpt>
        <trkpt lat="29.3649826" lon="103.0171115"><ele>2409.17</ele><time>2026-05-07T18:23:37.000Z</time></trkpt>
        <trkpt lat="29.3649197" lon="103.0172048"><ele>2409.4</ele><time>2026-05-07T18:23:47.000Z</time></trkpt>
        <trkpt lat="29.3648754" lon="103.0173043"><ele>2409.79</ele><time>2026-05-07T18:24:01.000Z</time></trkpt>
        <trkpt lat="29.364826" lon="103.0173949"><ele>2410.44</ele><time>2026-05-07T18:24:15.000Z</time></trkpt>
        <trkpt lat="29.3647701" lon="103.0174826"><ele>2411.41</ele><time>2026-05-07T18:24:31.000Z</time></trkpt>
        <trkpt lat="29.364693" lon="103.0175579"><ele>2412.87</ele><time>2026-05-07T18:25:09.000Z</time></trkpt>
        <trkpt lat="29.3646046" lon="103.0176101"><ele>2414.34</ele><time>2026-05-07T18:25:19.000Z</time></trkpt>
        <trkpt lat="29.3645072" lon="103.0176496"><ele>2416.48</ele><time>2026-05-07T18:25:39.000Z</time></trkpt>
        <trkpt lat="29.3644379" lon="103.0177161"><ele>2419.33</ele><time>2026-05-07T18:25:53.000Z</time></trkpt>
        <trkpt lat="29.3643662" lon="103.0177829"><ele>2421.55</ele><time>2026-05-07T18:26:23.000Z</time></trkpt>
        <trkpt lat="29.3643128" lon="103.0178766"><ele>2422.3</ele><time>2026-05-07T18:26:37.000Z</time></trkpt>
        <trkpt lat="29.3642495" lon="103.0179523"><ele>2421.91</ele><time>2026-05-07T18:26:47.000Z</time></trkpt>
        <trkpt lat="29.3641738" lon="103.0180197"><ele>2421.78</ele><time>2026-05-07T18:26:55.000Z</time></trkpt>
        <trkpt lat="29.3640998" lon="103.0180955"><ele>2421.83</ele><time>2026-05-07T18:27:03.000Z</time></trkpt>
        <trkpt lat="29.3640408" lon="103.0181811"><ele>2421.95</ele><time>2026-05-07T18:27:11.000Z</time></trkpt>
        <trkpt lat="29.3639663" lon="103.0182752"><ele>2422.31</ele><time>2026-05-07T18:27:19.000Z</time></trkpt>
        <trkpt lat="29.3639229" lon="103.0183741"><ele>2423.17</ele><time>2026-05-07T18:27:27.000Z</time></trkpt>
        <trkpt lat="29.3639252" lon="103.0184954"><ele>2424.17</ele><time>2026-05-07T18:27:37.000Z</time></trkpt>
        <trkpt lat="29.3639152" lon="103.0186041"><ele>2425.26</ele><time>2026-05-07T18:27:45.000Z</time></trkpt>
        <trkpt lat="29.363885" lon="103.0187141"><ele>2426.31</ele><time>2026-05-07T18:27:57.000Z</time></trkpt>
        <trkpt lat="29.3638537" lon="103.0188256"><ele>2427.55</ele><time>2026-05-07T18:28:07.000Z</time></trkpt>
        <trkpt lat="29.363839" lon="103.0189351"><ele>2428.86</ele><time>2026-05-07T18:28:15.000Z</time></trkpt>
        <trkpt lat="29.3638406" lon="103.0190575"><ele>2430.3</ele><time>2026-05-07T18:28:29.000Z</time></trkpt>
        <trkpt lat="29.3638024" lon="103.0191533"><ele>2431.55</ele><time>2026-05-07T18:29:23.000Z</time></trkpt>
        <trkpt lat="29.3637283" lon="103.0191309"><ele>2432.69</ele><time>2026-05-07T18:29:51.000Z</time></trkpt>
        <trkpt lat="29.3636314" lon="103.0190941"><ele>2433.98</ele><time>2026-05-07T18:30:23.000Z</time></trkpt>
        <trkpt lat="29.3635352" lon="103.0190402"><ele>2435.54</ele><time>2026-05-07T18:30:49.000Z</time></trkpt>
        <trkpt lat="29.3634469" lon="103.0189859"><ele>2436.47</ele><time>2026-05-07T18:31:07.000Z</time></trkpt>
        <trkpt lat="29.3633516" lon="103.0189585"><ele>2437.73</ele><time>2026-05-07T18:31:19.000Z</time></trkpt>
        <trkpt lat="29.3632617" lon="103.0189315"><ele>2438.71</ele><time>2026-05-07T18:31:35.000Z</time></trkpt>
        <trkpt lat="29.3631717" lon="103.0189004"><ele>2439.39</ele><time>2026-05-07T18:32:17.000Z</time></trkpt>
        <trkpt lat="29.3630817" lon="103.0188813"><ele>2439.14</ele><time>2026-05-07T18:32:49.000Z</time></trkpt>
        <trkpt lat="29.3629867" lon="103.0188903"><ele>2438.17</ele><time>2026-05-07T18:33:01.000Z</time></trkpt>
        <trkpt lat="29.3628948" lon="103.0189154"><ele>2437.45</ele><time>2026-05-07T18:33:19.000Z</time></trkpt>
        <trkpt lat="29.3628145" lon="103.0189782"><ele>2437.9</ele><time>2026-05-07T18:33:41.000Z</time></trkpt>
        <trkpt lat="29.3627282" lon="103.0190091"><ele>2438.2</ele><time>2026-05-07T18:34:03.000Z</time></trkpt>
        <trkpt lat="29.3626455" lon="103.0189827"><ele>2438.33</ele><time>2026-05-07T18:34:21.000Z</time></trkpt>
        <trkpt lat="29.362589" lon="103.0190457"><ele>2438.62</ele><time>2026-05-07T18:34:35.000Z</time></trkpt>
        <trkpt lat="29.3625294" lon="103.0191233"><ele>2439</ele><time>2026-05-07T18:34:49.000Z</time></trkpt>
        <trkpt lat="29.3624433" lon="103.0191341"><ele>2439</ele><time>2026-05-07T18:35:15.000Z</time></trkpt>
        <trkpt lat="29.3623457" lon="103.0191105"><ele>2438.66</ele><time>2026-05-07T18:35:37.000Z</time></trkpt>
        <trkpt lat="29.362255" lon="103.0191506"><ele>2437.73</ele><time>2026-05-07T18:35:53.000Z</time></trkpt>
        <trkpt lat="29.362163" lon="103.0192158"><ele>2436.47</ele><time>2026-05-07T18:36:09.000Z</time></trkpt>
        <trkpt lat="29.3620733" lon="103.0192696"><ele>2436.18</ele><time>2026-05-07T18:36:27.000Z</time></trkpt>
        <trkpt lat="29.3619971" lon="103.0193331"><ele>2437.44</ele><time>2026-05-07T18:36:49.000Z</time></trkpt>
        <trkpt lat="29.361926" lon="103.0194021"><ele>2439.01</ele><time>2026-05-07T18:37:07.000Z</time></trkpt>
        <trkpt lat="29.3618408" lon="103.019387"><ele>2441.46</ele><time>2026-05-07T18:37:31.000Z</time></trkpt>
        <trkpt lat="29.3617399" lon="103.0193719"><ele>2444.27</ele><time>2026-05-07T18:38:03.000Z</time></trkpt>
        <trkpt lat="29.3616448" lon="103.0193696"><ele>2447.81</ele><time>2026-05-07T18:38:19.000Z</time></trkpt>
        <trkpt lat="29.3616448" lon="103.0193696"><ele>2447.81</ele><time>2026-05-07T18:39:06.000Z</time></trkpt>
        <trkpt lat="29.3614183" lon="103.0193733"><ele>2450.99</ele><time>2026-05-07T18:39:52.000Z</time></trkpt>
        <trkpt lat="29.3614183" lon="103.0193733"><ele>2450.99</ele><time>2026-05-07T18:39:59.000Z</time></trkpt>
        <trkpt lat="29.3614183" lon="103.0193733"><ele>2450.99</ele><time>2026-05-07T18:40:46.000Z</time></trkpt>
        <trkpt lat="29.3614183" lon="103.0193733"><ele>2450.99</ele><time>2026-05-07T18:41:08.000Z</time></trkpt>
        <trkpt lat="29.3614183" lon="103.0193733"><ele>2450.99</ele><time>2026-05-07T18:41:40.000Z</time></trkpt>
        <trkpt lat="29.3609905" lon="103.0193624"><ele>2456.24</ele><time>2026-05-07T18:41:44.000Z</time></trkpt>
        <trkpt lat="29.3609905" lon="103.0193624"><ele>2456.24</ele><time>2026-05-07T18:42:15.000Z</time></trkpt>
        <trkpt lat="29.3608981" lon="103.0193706"><ele>2467.62</ele><time>2026-05-07T18:42:39.000Z</time></trkpt>
        <trkpt lat="29.3608117" lon="103.0194056"><ele>2476.47</ele><time>2026-05-07T18:43:09.000Z</time></trkpt>
        <trkpt lat="29.3608117" lon="103.0194056"><ele>2476.47</ele><time>2026-05-07T18:43:22.000Z</time></trkpt>
        <trkpt lat="29.360723" lon="103.0194321"><ele>2483.71</ele><time>2026-05-07T18:43:28.000Z</time></trkpt>
        <trkpt lat="29.360723" lon="103.0194321"><ele>2483.71</ele><time>2026-05-07T18:43:31.000Z</time></trkpt>
        <trkpt lat="29.3606334" lon="103.0194604"><ele>2489.77</ele><time>2026-05-07T18:43:55.000Z</time></trkpt>
        <trkpt lat="29.3605603" lon="103.0195292"><ele>2494.47</ele><time>2026-05-07T18:44:27.000Z</time></trkpt>
        <trkpt lat="29.3605018" lon="103.0196152"><ele>2498.49</ele><time>2026-05-07T18:44:45.000Z</time></trkpt>
        <trkpt lat="29.360425" lon="103.0196763"><ele>2501.67</ele><time>2026-05-07T18:45:09.000Z</time></trkpt>
        <trkpt lat="29.3603327" lon="103.0196747"><ele>2504.95</ele><time>2026-05-07T18:45:37.000Z</time></trkpt>
        <trkpt lat="29.3602463" lon="103.019618"><ele>2508.29</ele><time>2026-05-07T18:46:03.000Z</time></trkpt>
        <trkpt lat="29.360158" lon="103.0195521"><ele>2510.96</ele><time>2026-05-07T18:46:45.000Z</time></trkpt>
        <trkpt lat="29.360158" lon="103.0195521"><ele>2510.96</ele><time>2026-05-07T18:46:46.000Z</time></trkpt>
        <trkpt lat="29.3600604" lon="103.0194953"><ele>2514.98</ele><time>2026-05-07T18:47:00.000Z</time></trkpt>
        <trkpt lat="29.3600604" lon="103.0194953"><ele>2514.98</ele><time>2026-05-07T18:47:29.000Z</time></trkpt>
        <trkpt lat="29.3599835" lon="103.0195363"><ele>2520.62</ele><time>2026-05-07T18:47:55.000Z</time></trkpt>
        <trkpt lat="29.3599835" lon="103.0195363"><ele>2520.62</ele><time>2026-05-07T18:48:42.000Z</time></trkpt>
        <trkpt lat="29.3597685" lon="103.0195926"><ele>2525.52</ele><time>2026-05-07T18:48:46.000Z</time></trkpt>
        <trkpt lat="29.3597685" lon="103.0195926"><ele>2525.52</ele><time>2026-05-07T18:49:19.000Z</time></trkpt>
        <trkpt lat="29.359665" lon="103.0196678"><ele>2534.28</ele><time>2026-05-07T18:50:03.000Z</time></trkpt>
        <trkpt lat="29.359665" lon="103.0196678"><ele>2534.28</ele><time>2026-05-07T18:50:36.000Z</time></trkpt>
        <trkpt lat="29.3594882" lon="103.0198509"><ele>2541.52</ele><time>2026-05-07T18:51:00.000Z</time></trkpt>
        <trkpt lat="29.3594882" lon="103.0198509"><ele>2541.52</ele><time>2026-05-07T18:51:35.000Z</time></trkpt>
        <trkpt lat="29.3593991" lon="103.0198651"><ele>2550.63</ele><time>2026-05-07T18:52:23.000Z</time></trkpt>
        <trkpt lat="29.3593991" lon="103.0198651"><ele>2550.63</ele><time>2026-05-07T18:53:20.000Z</time></trkpt>
        <trkpt lat="29.3592233" lon="103.0196583"><ele>2558.92</ele><time>2026-05-07T18:53:30.000Z</time></trkpt>
        <trkpt lat="29.3592233" lon="103.0196583"><ele>2558.92</ele><time>2026-05-07T18:53:59.000Z</time></trkpt>
        <trkpt lat="29.3592233" lon="103.0196583"><ele>2558.92</ele><time>2026-05-07T18:54:36.000Z</time></trkpt>
        <trkpt lat="29.3590123" lon="103.0196996"><ele>2568.93</ele><time>2026-05-07T18:55:02.000Z</time></trkpt>
        <trkpt lat="29.3590123" lon="103.0196996"><ele>2568.93</ele><time>2026-05-07T18:55:33.000Z</time></trkpt>
        <trkpt lat="29.3588915" lon="103.0197185"><ele>2580.96</ele><time>2026-05-07T18:56:11.000Z</time></trkpt>
        <trkpt lat="29.3588915" lon="103.0197185"><ele>2580.96</ele><time>2026-05-07T18:56:52.000Z</time></trkpt>
        <trkpt lat="29.3586917" lon="103.0198233"><ele>2590.27</ele><time>2026-05-07T18:57:24.000Z</time></trkpt>
        <trkpt lat="29.3586917" lon="103.0198233"><ele>2590.27</ele><time>2026-05-07T18:57:39.000Z</time></trkpt>
        <trkpt lat="29.3586917" lon="103.0198233"><ele>2590.27</ele><time>2026-05-07T18:58:12.000Z</time></trkpt>
        <trkpt lat="29.3586017" lon="103.01985"><ele>2600.82</ele><time>2026-05-07T18:58:22.000Z</time></trkpt>
        <trkpt lat="29.3586017" lon="103.01985"><ele>2600.82</ele><time>2026-05-07T18:58:49.000Z</time></trkpt>
        <trkpt lat="29.3586017" lon="103.01985"><ele>2600.82</ele><time>2026-05-07T18:59:22.000Z</time></trkpt>
        <trkpt lat="29.3583814" lon="103.019885"><ele>2611.87</ele><time>2026-05-07T18:59:26.000Z</time></trkpt>
        <trkpt lat="29.3583814" lon="103.019885"><ele>2611.87</ele><time>2026-05-07T19:00:11.000Z</time></trkpt>
        <trkpt lat="29.3582808" lon="103.0199283"><ele>2623.93</ele><time>2026-05-07T19:00:49.000Z</time></trkpt>
        <trkpt lat="29.3581967" lon="103.019855"><ele>2633.34</ele><time>2026-05-07T19:01:55.000Z</time></trkpt>
        <trkpt lat="29.3581967" lon="103.019855"><ele>2633.34</ele><time>2026-05-07T19:02:28.000Z</time></trkpt>
        <trkpt lat="29.3582567" lon="103.0197767"><ele>2643.21</ele><time>2026-05-07T19:02:34.000Z</time></trkpt>
        <trkpt lat="29.3582567" lon="103.0197767"><ele>2643.21</ele><time>2026-05-07T19:02:37.000Z</time></trkpt>
        <trkpt lat="29.35828" lon="103.0196405"><ele>2651.73</ele><time>2026-05-07T19:03:25.000Z</time></trkpt>
        <trkpt lat="29.35828" lon="103.0196405"><ele>2651.73</ele><time>2026-05-07T19:04:20.000Z</time></trkpt>
        <trkpt lat="29.3583167" lon="103.019525"><ele>2659.63</ele><time>2026-05-07T19:04:28.000Z</time></trkpt>
        <trkpt lat="29.3583167" lon="103.019525"><ele>2659.63</ele><time>2026-05-07T19:04:29.000Z</time></trkpt>
        <trkpt lat="29.358405" lon="103.0194383"><ele>2665.81</ele><time>2026-05-07T19:05:09.000Z</time></trkpt>
        <trkpt lat="29.3584933" lon="103.0194462"><ele>2671.05</ele><time>2026-05-07T19:05:23.000Z</time></trkpt>
        <trkpt lat="29.358583" lon="103.0194167"><ele>2674.86</ele><time>2026-05-07T19:05:47.000Z</time></trkpt>
        <trkpt lat="29.3586416" lon="103.0193396"><ele>2678.53</ele><time>2026-05-07T19:06:13.000Z</time></trkpt>
        <trkpt lat="29.3586341" lon="103.0192391"><ele>2681.53</ele><time>2026-05-07T19:06:55.000Z</time></trkpt>
        <trkpt lat="29.3586341" lon="103.0192391"><ele>2681.53</ele><time>2026-05-07T19:08:00.000Z</time></trkpt>
        <trkpt lat="29.3586341" lon="103.0192391"><ele>2681.53</ele><time>2026-05-07T19:08:46.000Z</time></trkpt>
        <trkpt lat="29.3586341" lon="103.0192391"><ele>2681.53</ele><time>2026-05-07T19:09:34.000Z</time></trkpt>
        <trkpt lat="29.3586341" lon="103.0192391"><ele>2681.53</ele><time>2026-05-07T19:09:56.000Z</time></trkpt>
        <trkpt lat="29.3586341" lon="103.0192391"><ele>2681.53</ele><time>2026-05-07T19:10:30.000Z</time></trkpt>
        <trkpt lat="29.3583217" lon="103.01904"><ele>2685.52</ele><time>2026-05-07T19:10:54.000Z</time></trkpt>
        <trkpt lat="29.3583217" lon="103.01904"><ele>2685.52</ele><time>2026-05-07T19:10:55.000Z</time></trkpt>
        <trkpt lat="29.35823" lon="103.0190383"><ele>2700.91</ele><time>2026-05-07T19:11:27.000Z</time></trkpt>
        <trkpt lat="29.35823" lon="103.0190383"><ele>2700.91</ele><time>2026-05-07T19:12:00.000Z</time></trkpt>
        <trkpt lat="29.35823" lon="103.0190383"><ele>2700.91</ele><time>2026-05-07T19:12:58.000Z</time></trkpt>
        <trkpt lat="29.35823" lon="103.0190383"><ele>2700.91</ele><time>2026-05-07T19:13:42.000Z</time></trkpt>
        <trkpt lat="29.3583233" lon="103.018745"><ele>2711.57</ele><time>2026-05-07T19:13:48.000Z</time></trkpt>
        <trkpt lat="29.3583233" lon="103.018745"><ele>2711.57</ele><time>2026-05-07T19:14:25.000Z</time></trkpt>
        <trkpt lat="29.3583233" lon="103.018745"><ele>2711.57</ele><time>2026-05-07T19:15:18.000Z</time></trkpt>
        <trkpt lat="29.358285" lon="103.0184517"><ele>2730.86</ele><time>2026-05-07T19:15:28.000Z</time></trkpt>
        <trkpt lat="29.358285" lon="103.0184517"><ele>2730.86</ele><time>2026-05-07T19:16:35.000Z</time></trkpt>
        <trkpt lat="29.358285" lon="103.0184517"><ele>2730.86</ele><time>2026-05-07T19:16:48.000Z</time></trkpt>
        <trkpt lat="29.358285" lon="103.0184517"><ele>2730.86</ele><time>2026-05-07T19:16:52.000Z</time></trkpt>
        <trkpt lat="29.358285" lon="103.0184517"><ele>2730.86</ele><time>2026-05-07T19:17:30.000Z</time></trkpt>
        <trkpt lat="29.358285" lon="103.0184517"><ele>2730.86</ele><time>2026-05-07T19:17:34.000Z</time></trkpt>
        <trkpt lat="29.358285" lon="103.0184517"><ele>2730.86</ele><time>2026-05-07T19:18:26.000Z</time></trkpt>
        <trkpt lat="29.358285" lon="103.0184517"><ele>2730.86</ele><time>2026-05-07T19:18:52.000Z</time></trkpt>
        <trkpt lat="29.358285" lon="103.0184517"><ele>2730.86</ele><time>2026-05-07T19:19:24.000Z</time></trkpt>
        <trkpt lat="29.358" lon="103.0186017"><ele>2749.29</ele><time>2026-05-07T19:19:26.000Z</time></trkpt>
        <trkpt lat="29.358" lon="103.0186017"><ele>2749.29</ele><time>2026-05-07T19:19:37.000Z</time></trkpt>
        <trkpt lat="29.3579206" lon="103.0186153"><ele>2769.68</ele><time>2026-05-07T19:20:09.000Z</time></trkpt>
        <trkpt lat="29.3578306" lon="103.0186342"><ele>2783.58</ele><time>2026-05-07T19:20:53.000Z</time></trkpt>
        <trkpt lat="29.3577481" lon="103.0186795"><ele>2792.32</ele><time>2026-05-07T19:21:31.000Z</time></trkpt>
        <trkpt lat="29.3577184" lon="103.018614"><ele>2799.24</ele><time>2026-05-07T19:22:07.000Z</time></trkpt>
        <trkpt lat="29.35764" lon="103.01857"><ele>2805.46</ele><time>2026-05-07T19:23:31.000Z</time></trkpt>
        <trkpt lat="29.35764" lon="103.01857"><ele>2805.46</ele><time>2026-05-07T19:24:18.000Z</time></trkpt>
        <trkpt lat="29.35764" lon="103.01857"><ele>2805.46</ele><time>2026-05-07T19:25:06.000Z</time></trkpt>
        <trkpt lat="29.35764" lon="103.01857"><ele>2805.46</ele><time>2026-05-07T19:25:38.000Z</time></trkpt>
        <trkpt lat="29.3574583" lon="103.018505"><ele>2817.05</ele><time>2026-05-07T19:26:02.000Z</time></trkpt>
        <trkpt lat="29.3574583" lon="103.018505"><ele>2817.05</ele><time>2026-05-07T19:26:11.000Z</time></trkpt>
        <trkpt lat="29.3574167" lon="103.0186033"><ele>2832.47</ele><time>2026-05-07T19:26:53.000Z</time></trkpt>
        <trkpt lat="29.3574167" lon="103.0186033"><ele>2832.47</ele><time>2026-05-07T19:28:04.000Z</time></trkpt>
        <trkpt lat="29.3572383" lon="103.018705"><ele>2844.18</ele><time>2026-05-07T19:28:24.000Z</time></trkpt>
        <trkpt lat="29.3572383" lon="103.018705"><ele>2844.18</ele><time>2026-05-07T19:28:51.000Z</time></trkpt>
        <trkpt lat="29.3572383" lon="103.018705"><ele>2844.18</ele><time>2026-05-07T19:30:02.000Z</time></trkpt>
        <trkpt lat="29.3572383" lon="103.018705"><ele>2844.18</ele><time>2026-05-07T19:30:18.000Z</time></trkpt>
        <trkpt lat="29.3572383" lon="103.018705"><ele>2844.18</ele><time>2026-05-07T19:31:10.000Z</time></trkpt>
        <trkpt lat="29.3572383" lon="103.018705"><ele>2844.18</ele><time>2026-05-07T19:31:32.000Z</time></trkpt>
        <trkpt lat="29.3572383" lon="103.018705"><ele>2844.18</ele><time>2026-05-07T19:32:12.000Z</time></trkpt>
        <trkpt lat="29.3569383" lon="103.01909"><ele>2858.73</ele><time>2026-05-07T19:33:42.000Z</time></trkpt>
        <trkpt lat="29.3569383" lon="103.01909"><ele>2858.73</ele><time>2026-05-07T19:33:52.000Z</time></trkpt>
        <trkpt lat="29.3569121" lon="103.0191994"><ele>2884.4</ele><time>2026-05-07T19:34:18.000Z</time></trkpt>
        <trkpt lat="29.3568496" lon="103.0192833"><ele>2899.37</ele><time>2026-05-07T19:34:38.000Z</time></trkpt>
        <trkpt lat="29.3567758" lon="103.0193567"><ele>2908.85</ele><time>2026-05-07T19:34:52.000Z</time></trkpt>
        <trkpt lat="29.3567231" lon="103.0194472"><ele>2915.06</ele><time>2026-05-07T19:35:08.000Z</time></trkpt>
        <trkpt lat="29.3566725" lon="103.0195415"><ele>2919.68</ele><time>2026-05-07T19:35:32.000Z</time></trkpt>
        <trkpt lat="29.3566114" lon="103.0196257"><ele>2924.46</ele><time>2026-05-07T19:35:50.000Z</time></trkpt>
        <trkpt lat="29.3565676" lon="103.0197259"><ele>2928.74</ele><time>2026-05-07T19:36:14.000Z</time></trkpt>
        <trkpt lat="29.3565043" lon="103.0198086"><ele>2931.73</ele><time>2026-05-07T19:36:32.000Z</time></trkpt>
        <trkpt lat="29.3564595" lon="103.0199018"><ele>2934.13</ele><time>2026-05-07T19:37:16.000Z</time></trkpt>
        <trkpt lat="29.3563908" lon="103.0199668"><ele>2937.94</ele><time>2026-05-07T19:37:38.000Z</time></trkpt>
        <trkpt lat="29.3563041" lon="103.0200051"><ele>2941.67</ele><time>2026-05-07T19:37:52.000Z</time></trkpt>
        <trkpt lat="29.3562004" lon="103.0200399"><ele>2944.74</ele><time>2026-05-07T19:38:04.000Z</time></trkpt>
        <trkpt lat="29.3561034" lon="103.0200607"><ele>2947.65</ele><time>2026-05-07T19:38:18.000Z</time></trkpt>
        <trkpt lat="29.3560167" lon="103.0201027"><ele>2948.96</ele><time>2026-05-07T19:38:28.000Z</time></trkpt>
        <trkpt lat="29.3559368" lon="103.0201666"><ele>2949.32</ele><time>2026-05-07T19:38:40.000Z</time></trkpt>
        <trkpt lat="29.355843" lon="103.0201779"><ele>2948.97</ele><time>2026-05-07T19:38:52.000Z</time></trkpt>
        <trkpt lat="29.3557522" lon="103.0202025"><ele>2948.55</ele><time>2026-05-07T19:39:12.000Z</time></trkpt>
        <trkpt lat="29.3556881" lon="103.0202691"><ele>2948.7</ele><time>2026-05-07T19:39:38.000Z</time></trkpt>
        <trkpt lat="29.3556076" lon="103.0203201"><ele>2951.28</ele><time>2026-05-07T19:40:04.000Z</time></trkpt>
        <trkpt lat="29.3555184" lon="103.0203634"><ele>2954.77</ele><time>2026-05-07T19:40:28.000Z</time></trkpt>
        <trkpt lat="29.3554261" lon="103.0203485"><ele>2959</ele><time>2026-05-07T19:40:38.000Z</time></trkpt>
        <trkpt lat="29.3553296" lon="103.0203289"><ele>2962.05</ele><time>2026-05-07T19:40:48.000Z</time></trkpt>
        <trkpt lat="29.3552369" lon="103.0203022"><ele>2964.1</ele><time>2026-05-07T19:40:58.000Z</time></trkpt>
        <trkpt lat="29.3551474" lon="103.0203087"><ele>2965.35</ele><time>2026-05-07T19:41:26.000Z</time></trkpt>
        <trkpt lat="29.3550491" lon="103.0203088"><ele>2966.32</ele><time>2026-05-07T19:41:46.000Z</time></trkpt>
        <trkpt lat="29.3549474" lon="103.0202842"><ele>2966.27</ele><time>2026-05-07T19:41:52.000Z</time></trkpt>
        <trkpt lat="29.3549338" lon="103.0202804"><ele>2966.07</ele><time>2026-05-07T19:42:02.000Z</time></trkpt>
        <trkpt lat="29.3549338" lon="103.0202804"><ele>2966.07</ele><time>2026-05-07T19:42:34.000Z</time></trkpt>
        <trkpt lat="29.3548617" lon="103.02028"><ele>2965.91</ele><time>2026-05-07T19:42:46.000Z</time></trkpt>
        <trkpt lat="29.3548617" lon="103.02028"><ele>2965.91</ele><time>2026-05-07T19:43:20.000Z</time></trkpt>
        <trkpt lat="29.3548617" lon="103.02028"><ele>2965.91</ele><time>2026-05-07T19:44:00.000Z</time></trkpt>
        <trkpt lat="29.3547583" lon="103.02029"><ele>2967.2</ele><time>2026-05-07T19:44:08.000Z</time></trkpt>
        <trkpt lat="29.3547583" lon="103.02029"><ele>2967.2</ele><time>2026-05-07T19:44:08.000Z</time></trkpt>
        <trkpt lat="29.3546719" lon="103.0202549"><ele>2969.91</ele><time>2026-05-07T19:44:28.000Z</time></trkpt>
        <trkpt lat="29.3545821" lon="103.0202336"><ele>2972.1</ele><time>2026-05-07T19:44:40.000Z</time></trkpt>
        <trkpt lat="29.3545821" lon="103.0202336"><ele>2972.1</ele><time>2026-05-07T19:45:32.000Z</time></trkpt>
        <trkpt lat="29.3545821" lon="103.0202336"><ele>2972.1</ele><time>2026-05-07T19:45:38.000Z</time></trkpt>
        <trkpt lat="29.3545821" lon="103.0202336"><ele>2972.1</ele><time>2026-05-07T19:46:22.000Z</time></trkpt>
        <trkpt lat="29.3543767" lon="103.0201767"><ele>2974.55</ele><time>2026-05-07T19:46:34.000Z</time></trkpt>
        <trkpt lat="29.3543767" lon="103.0201767"><ele>2974.55</ele><time>2026-05-07T19:47:06.000Z</time></trkpt>
        <trkpt lat="29.3542917" lon="103.0202383"><ele>2977.76</ele><time>2026-05-07T19:47:22.000Z</time></trkpt>
        <trkpt lat="29.3542917" lon="103.0202383"><ele>2977.76</ele><time>2026-05-07T19:48:08.000Z</time></trkpt>
        <trkpt lat="29.3542024" lon="103.0202817"><ele>2981.04</ele><time>2026-05-07T19:48:12.000Z</time></trkpt>
        <trkpt lat="29.3542024" lon="103.0202817"><ele>2981.04</ele><time>2026-05-07T19:48:12.000Z</time></trkpt>
        <trkpt lat="29.3541137" lon="103.0202574"><ele>2986.62</ele><time>2026-05-07T19:48:30.000Z</time></trkpt>
        <trkpt lat="29.354029" lon="103.020212"><ele>2990.74</ele><time>2026-05-07T19:48:46.000Z</time></trkpt>
        <trkpt lat="29.3539419" lon="103.0201674"><ele>2993.91</ele><time>2026-05-07T19:49:02.000Z</time></trkpt>
        <trkpt lat="29.3539088" lon="103.0200674"><ele>2995.97</ele><time>2026-05-07T19:49:16.000Z</time></trkpt>
        <trkpt lat="29.3538431" lon="103.0199902"><ele>2997.92</ele><time>2026-05-07T19:49:36.000Z</time></trkpt>
        <trkpt lat="29.3537561" lon="103.0199604"><ele>3000.15</ele><time>2026-05-07T19:50:12.000Z</time></trkpt>
        <trkpt lat="29.3536779" lon="103.0198561"><ele>3001.29</ele><time>2026-05-07T19:51:02.000Z</time></trkpt>
        <trkpt lat="29.3535729" lon="103.0198427"><ele>3004.39</ele><time>2026-05-07T19:51:34.000Z</time></trkpt>
        <trkpt lat="29.3535729" lon="103.0198427"><ele>3004.39</ele><time>2026-05-07T19:52:20.000Z</time></trkpt>
        <trkpt lat="29.3535729" lon="103.0198427"><ele>3004.39</ele><time>2026-05-07T19:52:28.000Z</time></trkpt>
        <trkpt lat="29.3535729" lon="103.0198427"><ele>3004.39</ele><time>2026-05-07T19:53:20.000Z</time></trkpt>
        <trkpt lat="29.3535729" lon="103.0198427"><ele>3004.39</ele><time>2026-05-07T19:53:22.000Z</time></trkpt>
        <trkpt lat="29.3535729" lon="103.0198427"><ele>3004.39</ele><time>2026-05-07T19:53:54.000Z</time></trkpt>
        <trkpt lat="29.3535729" lon="103.0198427"><ele>3004.39</ele><time>2026-05-07T19:53:58.000Z</time></trkpt>
        <trkpt lat="29.3535729" lon="103.0198427"><ele>3004.39</ele><time>2026-05-07T19:54:26.000Z</time></trkpt>
        <trkpt lat="29.353405" lon="103.0195583"><ele>3008.91</ele><time>2026-05-07T19:54:28.000Z</time></trkpt>
        <trkpt lat="29.353405" lon="103.0195583"><ele>3008.91</ele><time>2026-05-07T19:54:40.000Z</time></trkpt>
        <trkpt lat="29.3533217" lon="103.0195033"><ele>3022.71</ele><time>2026-05-07T19:55:08.000Z</time></trkpt>
        <trkpt lat="29.3533554" lon="103.0193962"><ele>3032.43</ele><time>2026-05-07T19:55:56.000Z</time></trkpt>
        <trkpt lat="29.353267" lon="103.0194097"><ele>3037.71</ele><time>2026-05-07T19:56:04.000Z</time></trkpt>
        <trkpt lat="29.3532577" lon="103.0195171"><ele>3040.8</ele><time>2026-05-07T19:56:14.000Z</time></trkpt>
        <trkpt lat="29.3532577" lon="103.0195171"><ele>3040.8</ele><time>2026-05-07T19:56:16.000Z</time></trkpt>
        <trkpt lat="29.3532365" lon="103.0195197"><ele>3042.82</ele><time>2026-05-07T19:56:58.000Z</time></trkpt>
        <trkpt lat="29.3532365" lon="103.0195197"><ele>3042.82</ele><time>2026-05-07T19:57:02.000Z</time></trkpt>
        <trkpt lat="29.3531965" lon="103.0195599"><ele>3046.38</ele><time>2026-05-07T19:57:32.000Z</time></trkpt>
        <trkpt lat="29.3531013" lon="103.0195578"><ele>3050.52</ele><time>2026-05-07T19:58:22.000Z</time></trkpt>
        <trkpt lat="29.3531013" lon="103.0195578"><ele>3050.52</ele><time>2026-05-07T19:58:40.000Z</time></trkpt>
        <trkpt lat="29.3530111" lon="103.0195267"><ele>3056.36</ele><time>2026-05-07T19:58:44.000Z</time></trkpt>
        <trkpt lat="29.3530111" lon="103.0195267"><ele>3056.36</ele><time>2026-05-07T19:58:54.000Z</time></trkpt>
        <trkpt lat="29.3530111" lon="103.0195267"><ele>3056.36</ele><time>2026-05-07T19:59:38.000Z</time></trkpt>
        <trkpt lat="29.3529677" lon="103.0193606"><ele>3061.84</ele><time>2026-05-07T19:59:40.000Z</time></trkpt>
        <trkpt lat="29.3529677" lon="103.0193606"><ele>3061.84</ele><time>2026-05-07T20:00:30.000Z</time></trkpt>
        <trkpt lat="29.3528997" lon="103.0192801"><ele>3071.07</ele><time>2026-05-07T20:01:18.000Z</time></trkpt>
        <trkpt lat="29.3528997" lon="103.0192801"><ele>3071.07</ele><time>2026-05-07T20:01:48.000Z</time></trkpt>
        <trkpt lat="29.3528997" lon="103.0192801"><ele>3071.07</ele><time>2026-05-07T20:02:02.000Z</time></trkpt>
        <trkpt lat="29.3528997" lon="103.0192801"><ele>3071.07</ele><time>2026-05-07T20:02:34.000Z</time></trkpt>
        <trkpt lat="29.3527" lon="103.019235"><ele>3081.06</ele><time>2026-05-07T20:02:56.000Z</time></trkpt>
        <trkpt lat="29.3527" lon="103.019235"><ele>3081.06</ele><time>2026-05-07T20:03:24.000Z</time></trkpt>
        <trkpt lat="29.3527" lon="103.019235"><ele>3081.06</ele><time>2026-05-07T20:03:58.000Z</time></trkpt>
        <trkpt lat="29.3527" lon="103.019235"><ele>3081.06</ele><time>2026-05-07T20:05:54.000Z</time></trkpt>
        <trkpt lat="29.3527" lon="103.019235"><ele>3081.06</ele><time>2026-05-07T20:06:40.000Z</time></trkpt>
        <trkpt lat="29.3527" lon="103.019235"><ele>3081.06</ele><time>2026-05-07T20:06:46.000Z</time></trkpt>
        <trkpt lat="29.3527" lon="103.019235"><ele>3081.06</ele><time>2026-05-07T20:07:18.000Z</time></trkpt>
        <trkpt lat="29.3527" lon="103.019235"><ele>3081.06</ele><time>2026-05-07T20:07:22.000Z</time></trkpt>
        <trkpt lat="29.3527" lon="103.019235"><ele>3081.06</ele><time>2026-05-07T20:08:02.000Z</time></trkpt>
        <trkpt lat="29.3523333" lon="103.0193983"><ele>3093.9</ele><time>2026-05-07T20:08:28.000Z</time></trkpt>
        <trkpt lat="29.3523333" lon="103.0193983"><ele>3093.9</ele><time>2026-05-07T20:08:42.000Z</time></trkpt>
        <trkpt lat="29.3522658" lon="103.0194747"><ele>3115.75</ele><time>2026-05-07T20:09:08.000Z</time></trkpt>
        <trkpt lat="29.3521865" lon="103.0195353"><ele>3131.09</ele><time>2026-05-07T20:09:24.000Z</time></trkpt>
        <trkpt lat="29.3520984" lon="103.0195933"><ele>3141.33</ele><time>2026-05-07T20:09:40.000Z</time></trkpt>
        <trkpt lat="29.3520984" lon="103.0195933"><ele>3141.33</ele><time>2026-05-07T20:10:28.000Z</time></trkpt>
        <trkpt lat="29.3518892" lon="103.0196771"><ele>3148.29</ele><time>2026-05-07T20:10:48.000Z</time></trkpt>
        <trkpt lat="29.3518892" lon="103.0196771"><ele>3148.29</ele><time>2026-05-07T20:11:04.000Z</time></trkpt>
        <trkpt lat="29.3517959" lon="103.0196848"><ele>3155.52</ele><time>2026-05-07T20:11:18.000Z</time></trkpt>
        <trkpt lat="29.3516978" lon="103.0196796"><ele>3161.02</ele><time>2026-05-07T20:11:36.000Z</time></trkpt>
        <trkpt lat="29.3516054" lon="103.0197019"><ele>3165.05</ele><time>2026-05-07T20:11:48.000Z</time></trkpt>
        <trkpt lat="29.3515077" lon="103.0197273"><ele>3168</ele><time>2026-05-07T20:12:28.000Z</time></trkpt>
        <trkpt lat="29.3514192" lon="103.0197772"><ele>3168.39</ele><time>2026-05-07T20:12:36.000Z</time></trkpt>
        <trkpt lat="29.3513279" lon="103.0198442"><ele>3168.87</ele><time>2026-05-07T20:12:42.000Z</time></trkpt>
        <trkpt lat="29.3512403" lon="103.019896"><ele>3169.87</ele><time>2026-05-07T20:12:48.000Z</time></trkpt>
        <trkpt lat="29.3511801" lon="103.0199793"><ele>3171.56</ele><time>2026-05-07T20:12:58.000Z</time></trkpt>
        <trkpt lat="29.3511261" lon="103.0200676"><ele>3173.34</ele><time>2026-05-07T20:13:04.000Z</time></trkpt>
        <trkpt lat="29.3510451" lon="103.020141"><ele>3174.4</ele><time>2026-05-07T20:13:14.000Z</time></trkpt>
        <trkpt lat="29.3509468" lon="103.020194"><ele>3174.01</ele><time>2026-05-07T20:13:22.000Z</time></trkpt>
        <trkpt lat="29.3508505" lon="103.0202597"><ele>3173.92</ele><time>2026-05-07T20:13:32.000Z</time></trkpt>
        <trkpt lat="29.3507738" lon="103.0203337"><ele>3173.4</ele><time>2026-05-07T20:13:44.000Z</time></trkpt>
        <trkpt lat="29.3507251" lon="103.0204283"><ele>3171.85</ele><time>2026-05-07T20:13:50.000Z</time></trkpt>
        <trkpt lat="29.3506669" lon="103.0205124"><ele>3170.75</ele><time>2026-05-07T20:14:00.000Z</time></trkpt>
        <trkpt lat="29.3505897" lon="103.0205975"><ele>3169.18</ele><time>2026-05-07T20:14:12.000Z</time></trkpt>
        <trkpt lat="29.350515" lon="103.0206753"><ele>3167.86</ele><time>2026-05-07T20:14:18.000Z</time></trkpt>
        <trkpt lat="29.3504107" lon="103.0207428"><ele>3167.06</ele><time>2026-05-07T20:14:24.000Z</time></trkpt>
        <trkpt lat="29.3503209" lon="103.0208194"><ele>3166.43</ele><time>2026-05-07T20:14:30.000Z</time></trkpt>
        <trkpt lat="29.3502619" lon="103.0209113"><ele>3165.82</ele><time>2026-05-07T20:14:36.000Z</time></trkpt>
        <trkpt lat="29.3502169" lon="103.0210162"><ele>3165.55</ele><time>2026-05-07T20:14:46.000Z</time></trkpt>
        <trkpt lat="29.3501653" lon="103.0211312"><ele>3165.74</ele><time>2026-05-07T20:14:54.000Z</time></trkpt>
        <trkpt lat="29.3500847" lon="103.0212149"><ele>3166.54</ele><time>2026-05-07T20:15:04.000Z</time></trkpt>
        <trkpt lat="29.3500455" lon="103.0213098"><ele>3167.86</ele><time>2026-05-07T20:15:16.000Z</time></trkpt>
        <trkpt lat="29.3500842" lon="103.0214086"><ele>3168.52</ele><time>2026-05-07T20:15:34.000Z</time></trkpt>
        <trkpt lat="29.3501297" lon="103.0215238"><ele>3168.38</ele><time>2026-05-07T20:15:42.000Z</time></trkpt>
        <trkpt lat="29.3501864" lon="103.0216323"><ele>3167.62</ele><time>2026-05-07T20:15:50.000Z</time></trkpt>
        <trkpt lat="29.3502103" lon="103.0216559"><ele>3166.58</ele><time>2026-05-07T20:16:02.000Z</time></trkpt>
        <trkpt lat="29.3502103" lon="103.0216559"><ele>3166.58</ele><time>2026-05-07T20:16:34.000Z</time></trkpt>
        <trkpt lat="29.3501461" lon="103.0216771"><ele>3165.68</ele><time>2026-05-07T20:16:48.000Z</time></trkpt>
        <trkpt lat="29.3501461" lon="103.0216771"><ele>3165.68</ele><time>2026-05-07T20:16:54.000Z</time></trkpt>
        <trkpt lat="29.3500415" lon="103.0216782"><ele>3165.99</ele><time>2026-05-07T20:17:00.000Z</time></trkpt>
        <trkpt lat="29.3499324" lon="103.021687"><ele>3166.51</ele><time>2026-05-07T20:17:10.000Z</time></trkpt>
        <trkpt lat="29.349824" lon="103.0216372"><ele>3167.88</ele><time>2026-05-07T20:17:20.000Z</time></trkpt>
        <trkpt lat="29.3497175" lon="103.021632"><ele>3169.61</ele><time>2026-05-07T20:17:32.000Z</time></trkpt>
        <trkpt lat="29.3496232" lon="103.0216794"><ele>3171.41</ele><time>2026-05-07T20:17:38.000Z</time></trkpt>
        <trkpt lat="29.349524" lon="103.0217266"><ele>3172.57</ele><time>2026-05-07T20:17:44.000Z</time></trkpt>
        <trkpt lat="29.3494189" lon="103.0217394"><ele>3173.18</ele><time>2026-05-07T20:17:52.000Z</time></trkpt>
        <trkpt lat="29.3493169" lon="103.021763"><ele>3173.88</ele><time>2026-05-07T20:17:58.000Z</time></trkpt>
        <trkpt lat="29.3492301" lon="103.0218241"><ele>3174.75</ele><time>2026-05-07T20:18:06.000Z</time></trkpt>
        <trkpt lat="29.3491176" lon="103.0218424"><ele>3176.06</ele><time>2026-05-07T20:18:14.000Z</time></trkpt>
        <trkpt lat="29.3490111" lon="103.0218757"><ele>3177.45</ele><time>2026-05-07T20:18:20.000Z</time></trkpt>
        <trkpt lat="29.3489066" lon="103.0219181"><ele>3178.25</ele><time>2026-05-07T20:18:26.000Z</time></trkpt>
        <trkpt lat="29.3488243" lon="103.0219838"><ele>3178.61</ele><time>2026-05-07T20:18:30.000Z</time></trkpt>
        <trkpt lat="29.34873" lon="103.0220022"><ele>3178.69</ele><time>2026-05-07T20:18:36.000Z</time></trkpt>
        <trkpt lat="29.348639" lon="103.0220118"><ele>3178.35</ele><time>2026-05-07T20:18:40.000Z</time></trkpt>
        <trkpt lat="29.348519" lon="103.0220137"><ele>3177.9</ele><time>2026-05-07T20:18:46.000Z</time></trkpt>
        <trkpt lat="29.3484059" lon="103.0220293"><ele>3177.04</ele><time>2026-05-07T20:18:52.000Z</time></trkpt>
        <trkpt lat="29.3482992" lon="103.0220271"><ele>3176.42</ele><time>2026-05-07T20:18:56.000Z</time></trkpt>
        <trkpt lat="29.3481853" lon="103.0220547"><ele>3175.55</ele><time>2026-05-07T20:19:02.000Z</time></trkpt>
        <trkpt lat="29.3480799" lon="103.0220791"><ele>3175.1</ele><time>2026-05-07T20:19:08.000Z</time></trkpt>
        <trkpt lat="29.3479692" lon="103.0220409"><ele>3175.49</ele><time>2026-05-07T20:19:14.000Z</time></trkpt>
        <trkpt lat="29.3478399" lon="103.0220247"><ele>3176.52</ele><time>2026-05-07T20:19:20.000Z</time></trkpt>
        <trkpt lat="29.3477165" lon="103.0219983"><ele>3176.9</ele><time>2026-05-07T20:19:26.000Z</time></trkpt>
        <trkpt lat="29.3476152" lon="103.0219286"><ele>3176.9</ele><time>2026-05-07T20:19:32.000Z</time></trkpt>
        <trkpt lat="29.3475372" lon="103.0218427"><ele>3176.64</ele><time>2026-05-07T20:19:38.000Z</time></trkpt>
        <trkpt lat="29.3474854" lon="103.0217474"><ele>3175.33</ele><time>2026-05-07T20:19:44.000Z</time></trkpt>
        <trkpt lat="29.3474113" lon="103.0216698"><ele>3174.07</ele><time>2026-05-07T20:19:54.000Z</time></trkpt>
        <trkpt lat="29.3473204" lon="103.021613"><ele>3173.01</ele><time>2026-05-07T20:20:04.000Z</time></trkpt>
        <trkpt lat="29.3472045" lon="103.0216151"><ele>3171.5</ele><time>2026-05-07T20:20:12.000Z</time></trkpt>
        <trkpt lat="29.3470903" lon="103.0215925"><ele>3169.48</ele><time>2026-05-07T20:20:18.000Z</time></trkpt>
        <trkpt lat="29.3469874" lon="103.0215583"><ele>3167.47</ele><time>2026-05-07T20:20:26.000Z</time></trkpt>
        <trkpt lat="29.346892" lon="103.0215179"><ele>3164.9</ele><time>2026-05-07T20:20:32.000Z</time></trkpt>
        <trkpt lat="29.346803" lon="103.0215281"><ele>3163.14</ele><time>2026-05-07T20:20:38.000Z</time></trkpt>
        <trkpt lat="29.346692" lon="103.0215473"><ele>3162.39</ele><time>2026-05-07T20:20:44.000Z</time></trkpt>
        <trkpt lat="29.3465811" lon="103.0215798"><ele>3162.01</ele><time>2026-05-07T20:20:50.000Z</time></trkpt>
        <trkpt lat="29.3464962" lon="103.0216653"><ele>3162.78</ele><time>2026-05-07T20:20:56.000Z</time></trkpt>
        <trkpt lat="29.346395" lon="103.021716"><ele>3163.73</ele><time>2026-05-07T20:21:02.000Z</time></trkpt>
        <trkpt lat="29.3462941" lon="103.0217764"><ele>3164.02</ele><time>2026-05-07T20:21:08.000Z</time></trkpt>
        <trkpt lat="29.3461986" lon="103.021799"><ele>3163.37</ele><time>2026-05-07T20:21:14.000Z</time></trkpt>
        <trkpt lat="29.346109" lon="103.0217795"><ele>3162</ele><time>2026-05-07T20:21:20.000Z</time></trkpt>
        <trkpt lat="29.3460275" lon="103.0218167"><ele>3160.28</ele><time>2026-05-07T20:21:26.000Z</time></trkpt>
        <trkpt lat="29.3459324" lon="103.0218639"><ele>3158.4</ele><time>2026-05-07T20:21:42.000Z</time></trkpt>
        <trkpt lat="29.345854" lon="103.021951"><ele>3156.33</ele><time>2026-05-07T20:21:52.000Z</time></trkpt>
        <trkpt lat="29.3457772" lon="103.0220564"><ele>3154.34</ele><time>2026-05-07T20:22:00.000Z</time></trkpt>
        <trkpt lat="29.345694" lon="103.0221494"><ele>3152.34</ele><time>2026-05-07T20:22:06.000Z</time></trkpt>
        <trkpt lat="29.3456029" lon="103.0222252"><ele>3151.08</ele><time>2026-05-07T20:22:12.000Z</time></trkpt>
        <trkpt lat="29.3455141" lon="103.0222704"><ele>3150.1</ele><time>2026-05-07T20:22:20.000Z</time></trkpt>
        <trkpt lat="29.3454254" lon="103.0222949"><ele>3149.75</ele><time>2026-05-07T20:22:26.000Z</time></trkpt>
        <trkpt lat="29.3453318" lon="103.0223439"><ele>3150.2</ele><time>2026-05-07T20:22:34.000Z</time></trkpt>
        <trkpt lat="29.3452328" lon="103.0224041"><ele>3151.62</ele><time>2026-05-07T20:22:42.000Z</time></trkpt>
        <trkpt lat="29.3451308" lon="103.0224556"><ele>3152.09</ele><time>2026-05-07T20:22:50.000Z</time></trkpt>
        <trkpt lat="29.3450407" lon="103.0225033"><ele>3152.65</ele><time>2026-05-07T20:22:56.000Z</time></trkpt>
        <trkpt lat="29.3449704" lon="103.0225959"><ele>3153.83</ele><time>2026-05-07T20:23:06.000Z</time></trkpt>
        <trkpt lat="29.3449194" lon="103.0226941"><ele>3154.77</ele><time>2026-05-07T20:23:12.000Z</time></trkpt>
        <trkpt lat="29.3448378" lon="103.0227781"><ele>3155.6</ele><time>2026-05-07T20:23:18.000Z</time></trkpt>
        <trkpt lat="29.3447321" lon="103.0228066"><ele>3156.42</ele><time>2026-05-07T20:23:24.000Z</time></trkpt>
        <trkpt lat="29.3446057" lon="103.0228285"><ele>3156.71</ele><time>2026-05-07T20:23:30.000Z</time></trkpt>
        <trkpt lat="29.344501" lon="103.0229024"><ele>3156.49</ele><time>2026-05-07T20:23:36.000Z</time></trkpt>
        <trkpt lat="29.3444076" lon="103.0229384"><ele>3156.88</ele><time>2026-05-07T20:23:40.000Z</time></trkpt>
        <trkpt lat="29.3443169" lon="103.0229387"><ele>3156.98</ele><time>2026-05-07T20:23:44.000Z</time></trkpt>
        <trkpt lat="29.3442216" lon="103.0229259"><ele>3156.56</ele><time>2026-05-07T20:23:50.000Z</time></trkpt>
        <trkpt lat="29.3441228" lon="103.0229596"><ele>3155.46</ele><time>2026-05-07T20:23:58.000Z</time></trkpt>
        <trkpt lat="29.3440177" lon="103.0230286"><ele>3153.71</ele><time>2026-05-07T20:24:06.000Z</time></trkpt>
        <trkpt lat="29.3439192" lon="103.0230716"><ele>3152.29</ele><time>2026-05-07T20:24:14.000Z</time></trkpt>
        <trkpt lat="29.3438199" lon="103.0231086"><ele>3150.7</ele><time>2026-05-07T20:24:20.000Z</time></trkpt>
        <trkpt lat="29.3436925" lon="103.0231434"><ele>3149.45</ele><time>2026-05-07T20:24:26.000Z</time></trkpt>
        <trkpt lat="29.343575" lon="103.0232216"><ele>3148.31</ele><time>2026-05-07T20:24:32.000Z</time></trkpt>
        <trkpt lat="29.3435201" lon="103.0233234"><ele>3148.69</ele><time>2026-05-07T20:24:36.000Z</time></trkpt>
        <trkpt lat="29.3434459" lon="103.0234304"><ele>3149.38</ele><time>2026-05-07T20:24:42.000Z</time></trkpt>
        <trkpt lat="29.3433763" lon="103.0235167"><ele>3150.72</ele><time>2026-05-07T20:24:50.000Z</time></trkpt>
        <trkpt lat="29.3433052" lon="103.0236014"><ele>3150.89</ele><time>2026-05-07T20:25:08.000Z</time></trkpt>
        <trkpt lat="29.3432367" lon="103.0236771"><ele>3150.03</ele><time>2026-05-07T20:25:28.000Z</time></trkpt>
        <trkpt lat="29.3432027" lon="103.0237697"><ele>3149.2</ele><time>2026-05-07T20:25:36.000Z</time></trkpt>
        <trkpt lat="29.3432349" lon="103.0238654"><ele>3148.43</ele><time>2026-05-07T20:25:46.000Z</time></trkpt>
        <trkpt lat="29.3432817" lon="103.0239716"><ele>3147.73</ele><time>2026-05-07T20:25:56.000Z</time></trkpt>
        <trkpt lat="29.3432954" lon="103.0240812"><ele>3147.37</ele><time>2026-05-07T20:26:06.000Z</time></trkpt>
        <trkpt lat="29.3433124" lon="103.0241924"><ele>3147.43</ele><time>2026-05-07T20:26:14.000Z</time></trkpt>
        <trkpt lat="29.3433395" lon="103.0242949"><ele>3147.63</ele><time>2026-05-07T20:26:26.000Z</time></trkpt>
        <trkpt lat="29.3433413" lon="103.0244012"><ele>3148.65</ele><time>2026-05-07T20:26:34.000Z</time></trkpt>
        <trkpt lat="29.343292" lon="103.0244829"><ele>3149.4</ele><time>2026-05-07T20:26:46.000Z</time></trkpt>
        <trkpt lat="29.3431974" lon="103.0245267"><ele>3150.43</ele><time>2026-05-07T20:26:56.000Z</time></trkpt>
        <trkpt lat="29.3431272" lon="103.0245993"><ele>3151.84</ele><time>2026-05-07T20:27:08.000Z</time></trkpt>
        <trkpt lat="29.3430815" lon="103.024699"><ele>3153.93</ele><time>2026-05-07T20:27:22.000Z</time></trkpt>
        <trkpt lat="29.3430094" lon="103.0247622"><ele>3156.54</ele><time>2026-05-07T20:27:28.000Z</time></trkpt>
        <trkpt lat="29.3429555" lon="103.0247716"><ele>3158.33</ele><time>2026-05-07T20:27:40.000Z</time></trkpt>
        <trkpt lat="29.3428892" lon="103.024715"><ele>3160.17</ele><time>2026-05-07T20:28:02.000Z</time></trkpt>
        <trkpt lat="29.3428892" lon="103.024715"><ele>3160.17</ele><time>2026-05-07T20:28:34.000Z</time></trkpt>
        <trkpt lat="29.3428892" lon="103.024715"><ele>3160.17</ele><time>2026-05-07T20:28:56.000Z</time></trkpt>
        <trkpt lat="29.3428892" lon="103.024715"><ele>3160.17</ele><time>2026-05-07T20:29:28.000Z</time></trkpt>
        <trkpt lat="29.3428892" lon="103.024715"><ele>3160.17</ele><time>2026-05-07T20:30:45.000Z</time></trkpt>
        <trkpt lat="29.3428892" lon="103.024715"><ele>3160.17</ele><time>2026-05-07T20:30:46.000Z</time></trkpt>
      </trkseg>
      <trkseg>
        <trkpt lat="29.3429833" lon="103.024755"><ele>3160.96</ele><time>2026-05-07T20:35:44.000Z</time></trkpt>
        <trkpt lat="29.3429833" lon="103.024755"><ele>3160.96</ele><time>2026-05-07T20:36:03.000Z</time></trkpt>
        <trkpt lat="29.3430817" lon="103.0247167"><ele>3162.31</ele><time>2026-05-07T20:36:13.000Z</time></trkpt>
        <trkpt lat="29.3431363" lon="103.0246233"><ele>3163.21</ele><time>2026-05-07T20:36:27.000Z</time></trkpt>
        <trkpt lat="29.3432025" lon="103.0245306"><ele>3163.2</ele><time>2026-05-07T20:36:37.000Z</time></trkpt>
        <trkpt lat="29.3432908" lon="103.0244728"><ele>3161.87</ele><time>2026-05-07T20:36:47.000Z</time></trkpt>
        <trkpt lat="29.3433361" lon="103.024387"><ele>3160.12</ele><time>2026-05-07T20:36:55.000Z</time></trkpt>
        <trkpt lat="29.3433372" lon="103.0242699"><ele>3158.43</ele><time>2026-05-07T20:37:01.000Z</time></trkpt>
        <trkpt lat="29.3433127" lon="103.0241497"><ele>3156.87</ele><time>2026-05-07T20:37:09.000Z</time></trkpt>
        <trkpt lat="29.3432998" lon="103.0240343"><ele>3155.08</ele><time>2026-05-07T20:37:17.000Z</time></trkpt>
        <trkpt lat="29.3432955" lon="103.0239095"><ele>3152.85</ele><time>2026-05-07T20:37:25.000Z</time></trkpt>
        <trkpt lat="29.3432517" lon="103.0238168"><ele>3151.02</ele><time>2026-05-07T20:37:33.000Z</time></trkpt>
        <trkpt lat="29.3432424" lon="103.0237177"><ele>3149.21</ele><time>2026-05-07T20:37:45.000Z</time></trkpt>
        <trkpt lat="29.3432791" lon="103.0236263"><ele>3147.87</ele><time>2026-05-07T20:37:53.000Z</time></trkpt>
        <trkpt lat="29.3433496" lon="103.0235498"><ele>3146.68</ele><time>2026-05-07T20:38:21.000Z</time></trkpt>
        <trkpt lat="29.3434106" lon="103.023453"><ele>3145.57</ele><time>2026-05-07T20:38:47.000Z</time></trkpt>
        <trkpt lat="29.3435061" lon="103.0233866"><ele>3145.41</ele><time>2026-05-07T20:38:59.000Z</time></trkpt>
        <trkpt lat="29.3435729" lon="103.0233079"><ele>3145.15</ele><time>2026-05-07T20:39:05.000Z</time></trkpt>
        <trkpt lat="29.3436204" lon="103.0232058"><ele>3145.21</ele><time>2026-05-07T20:39:15.000Z</time></trkpt>
        <trkpt lat="29.3436948" lon="103.0231327"><ele>3145.68</ele><time>2026-05-07T20:39:25.000Z</time></trkpt>
        <trkpt lat="29.3437828" lon="103.023094"><ele>3146.55</ele><time>2026-05-07T20:39:33.000Z</time></trkpt>
        <trkpt lat="29.3438773" lon="103.0230807"><ele>3147.35</ele><time>2026-05-07T20:39:39.000Z</time></trkpt>
        <trkpt lat="29.3439706" lon="103.023078"><ele>3147.71</ele><time>2026-05-07T20:39:45.000Z</time></trkpt>
        <trkpt lat="29.3440511" lon="103.0230377"><ele>3147.97</ele><time>2026-05-07T20:39:51.000Z</time></trkpt>
        <trkpt lat="29.344129" lon="103.0229842"><ele>3148.28</ele><time>2026-05-07T20:39:59.000Z</time></trkpt>
        <trkpt lat="29.3442189" lon="103.0229182"><ele>3148.89</ele><time>2026-05-07T20:40:07.000Z</time></trkpt>
        <trkpt lat="29.3443186" lon="103.0229314"><ele>3148.94</ele><time>2026-05-07T20:40:17.000Z</time></trkpt>
        <trkpt lat="29.3444252" lon="103.0229287"><ele>3149.22</ele><time>2026-05-07T20:40:27.000Z</time></trkpt>
        <trkpt lat="29.3445173" lon="103.0229002"><ele>3149.94</ele><time>2026-05-07T20:40:35.000Z</time></trkpt>
        <trkpt lat="29.3446007" lon="103.0228387"><ele>3150.83</ele><time>2026-05-07T20:40:43.000Z</time></trkpt>
        <trkpt lat="29.3446852" lon="103.0227935"><ele>3151.72</ele><time>2026-05-07T20:40:51.000Z</time></trkpt>
        <trkpt lat="29.3447869" lon="103.0227891"><ele>3152.31</ele><time>2026-05-07T20:40:59.000Z</time></trkpt>
        <trkpt lat="29.344899" lon="103.0227712"><ele>3152.87</ele><time>2026-05-07T20:41:07.000Z</time></trkpt>
        <trkpt lat="29.3449666" lon="103.0226948"><ele>3153.48</ele><time>2026-05-07T20:41:15.000Z</time></trkpt>
        <trkpt lat="29.3450156" lon="103.0225881"><ele>3153.66</ele><time>2026-05-07T20:41:23.000Z</time></trkpt>
        <trkpt lat="29.3450736" lon="103.0224882"><ele>3153.81</ele><time>2026-05-07T20:41:33.000Z</time></trkpt>
        <trkpt lat="29.3451606" lon="103.0224204"><ele>3154.32</ele><time>2026-05-07T20:41:41.000Z</time></trkpt>
        <trkpt lat="29.3452551" lon="103.0223669"><ele>3154.27</ele><time>2026-05-07T20:41:49.000Z</time></trkpt>
        <trkpt lat="29.3453585" lon="103.0223277"><ele>3153.25</ele><time>2026-05-07T20:41:57.000Z</time></trkpt>
        <trkpt lat="29.3454604" lon="103.0223036"><ele>3151.77</ele><time>2026-05-07T20:42:05.000Z</time></trkpt>
        <trkpt lat="29.3455569" lon="103.0222609"><ele>3150.66</ele><time>2026-05-07T20:42:13.000Z</time></trkpt>
        <trkpt lat="29.3456447" lon="103.0222225"><ele>3149.34</ele><time>2026-05-07T20:42:21.000Z</time></trkpt>
        <trkpt lat="29.345713" lon="103.0221581"><ele>3148.25</ele><time>2026-05-07T20:42:29.000Z</time></trkpt>
        <trkpt lat="29.3457961" lon="103.0220929"><ele>3147.41</ele><time>2026-05-07T20:42:35.000Z</time></trkpt>
        <trkpt lat="29.345852" lon="103.0220075"><ele>3146.89</ele><time>2026-05-07T20:42:41.000Z</time></trkpt>
        <trkpt lat="29.3459129" lon="103.0219229"><ele>3146.59</ele><time>2026-05-07T20:42:49.000Z</time></trkpt>
        <trkpt lat="29.3459696" lon="103.0218364"><ele>3146.81</ele><time>2026-05-07T20:43:03.000Z</time></trkpt>
        <trkpt lat="29.3460516" lon="103.0217712"><ele>3146.72</ele><time>2026-05-07T20:43:15.000Z</time></trkpt>
        <trkpt lat="29.3461482" lon="103.0217507"><ele>3146.54</ele><time>2026-05-07T20:43:27.000Z</time></trkpt>
        <trkpt lat="29.3462453" lon="103.0217718"><ele>3146.82</ele><time>2026-05-07T20:43:39.000Z</time></trkpt>
        <trkpt lat="29.3463375" lon="103.0217702"><ele>3147.24</ele><time>2026-05-07T20:43:53.000Z</time></trkpt>
        <trkpt lat="29.3464196" lon="103.0217239"><ele>3148.56</ele><time>2026-05-07T20:44:07.000Z</time></trkpt>
        <trkpt lat="29.3465153" lon="103.0216981"><ele>3149.91</ele><time>2026-05-07T20:44:15.000Z</time></trkpt>
        <trkpt lat="29.346589" lon="103.0216379"><ele>3151.07</ele><time>2026-05-07T20:44:23.000Z</time></trkpt>
        <trkpt lat="29.3466742" lon="103.0215776"><ele>3152.03</ele><time>2026-05-07T20:44:33.000Z</time></trkpt>
        <trkpt lat="29.3467671" lon="103.0215368"><ele>3153.31</ele><time>2026-05-07T20:44:41.000Z</time></trkpt>
        <trkpt lat="29.3468638" lon="103.0215302"><ele>3154.38</ele><time>2026-05-07T20:44:49.000Z</time></trkpt>
        <trkpt lat="29.346964" lon="103.0215433"><ele>3155.33</ele><time>2026-05-07T20:44:59.000Z</time></trkpt>
        <trkpt lat="29.3470625" lon="103.0215888"><ele>3157.17</ele><time>2026-05-07T20:45:09.000Z</time></trkpt>
        <trkpt lat="29.3471549" lon="103.0216139"><ele>3159.59</ele><time>2026-05-07T20:45:19.000Z</time></trkpt>
        <trkpt lat="29.34726" lon="103.0216186"><ele>3161.92</ele><time>2026-05-07T20:45:29.000Z</time></trkpt>
        <trkpt lat="29.3473637" lon="103.021648"><ele>3163.59</ele><time>2026-05-07T20:45:39.000Z</time></trkpt>
        <trkpt lat="29.347445" lon="103.0217023"><ele>3164.75</ele><time>2026-05-07T20:45:53.000Z</time></trkpt>
        <trkpt lat="29.3475167" lon="103.0217748"><ele>3165.72</ele><time>2026-05-07T20:46:05.000Z</time></trkpt>
        <trkpt lat="29.3475835" lon="103.0218634"><ele>3166.31</ele><time>2026-05-07T20:46:15.000Z</time></trkpt>
        <trkpt lat="29.3476509" lon="103.0219571"><ele>3166.31</ele><time>2026-05-07T20:46:29.000Z</time></trkpt>
        <trkpt lat="29.3477281" lon="103.0220283"><ele>3165.49</ele><time>2026-05-07T20:46:43.000Z</time></trkpt>
        <trkpt lat="29.3478156" lon="103.0220473"><ele>3165.36</ele><time>2026-05-07T20:46:55.000Z</time></trkpt>
        <trkpt lat="29.3479165" lon="103.0220341"><ele>3165.55</ele><time>2026-05-07T20:47:05.000Z</time></trkpt>
        <trkpt lat="29.3480066" lon="103.0220585"><ele>3166.22</ele><time>2026-05-07T20:47:15.000Z</time></trkpt>
        <trkpt lat="29.3481117" lon="103.0220564"><ele>3167.11</ele><time>2026-05-07T20:47:23.000Z</time></trkpt>
        <trkpt lat="29.3482285" lon="103.0220505"><ele>3167.62</ele><time>2026-05-07T20:47:31.000Z</time></trkpt>
        <trkpt lat="29.34834" lon="103.0220183"><ele>3167.87</ele><time>2026-05-07T20:47:39.000Z</time></trkpt>
        <trkpt lat="29.3484447" lon="103.0219962"><ele>3167.32</ele><time>2026-05-07T20:47:47.000Z</time></trkpt>
        <trkpt lat="29.3485491" lon="103.0219847"><ele>3166.93</ele><time>2026-05-07T20:47:55.000Z</time></trkpt>
        <trkpt lat="29.3486424" lon="103.021985"><ele>3167.04</ele><time>2026-05-07T20:48:01.000Z</time></trkpt>
        <trkpt lat="29.3487431" lon="103.0219856"><ele>3168.14</ele><time>2026-05-07T20:48:09.000Z</time></trkpt>
        <trkpt lat="29.3488408" lon="103.0219805"><ele>3169.29</ele><time>2026-05-07T20:48:17.000Z</time></trkpt>
        <trkpt lat="29.34893" lon="103.0219352"><ele>3169.55</ele><time>2026-05-07T20:48:25.000Z</time></trkpt>
        <trkpt lat="29.3490211" lon="103.0218904"><ele>3170.04</ele><time>2026-05-07T20:48:33.000Z</time></trkpt>
        <trkpt lat="29.349116" lon="103.0218367"><ele>3170.76</ele><time>2026-05-07T20:48:41.000Z</time></trkpt>
        <trkpt lat="29.34921" lon="103.021831"><ele>3171.33</ele><time>2026-05-07T20:48:49.000Z</time></trkpt>
        <trkpt lat="29.3493022" lon="103.0218176"><ele>3172.05</ele><time>2026-05-07T20:48:57.000Z</time></trkpt>
        <trkpt lat="29.3493938" lon="103.0217794"><ele>3172.76</ele><time>2026-05-07T20:49:05.000Z</time></trkpt>
        <trkpt lat="29.3494903" lon="103.021764"><ele>3173.04</ele><time>2026-05-07T20:49:13.000Z</time></trkpt>
        <trkpt lat="29.3495899" lon="103.0217454"><ele>3172.42</ele><time>2026-05-07T20:49:34.000Z</time></trkpt>
        <trkpt lat="29.3496867" lon="103.0216836"><ele>3172.45</ele><time>2026-05-07T20:49:44.000Z</time></trkpt>
        <trkpt lat="29.3497796" lon="103.0216409"><ele>3172.09</ele><time>2026-05-07T20:49:52.000Z</time></trkpt>
        <trkpt lat="29.3498749" lon="103.021635"><ele>3171.36</ele><time>2026-05-07T20:50:00.000Z</time></trkpt>
        <trkpt lat="29.3499575" lon="103.0215763"><ele>3170.43</ele><time>2026-05-07T20:50:08.000Z</time></trkpt>
        <trkpt lat="29.3500003" lon="103.0214838"><ele>3168.91</ele><time>2026-05-07T20:50:16.000Z</time></trkpt>
        <trkpt lat="29.3500256" lon="103.0213759"><ele>3166.84</ele><time>2026-05-07T20:50:24.000Z</time></trkpt>
        <trkpt lat="29.3500658" lon="103.0212601"><ele>3165.19</ele><time>2026-05-07T20:50:32.000Z</time></trkpt>
        <trkpt lat="29.3501325" lon="103.0211727"><ele>3164.2</ele><time>2026-05-07T20:50:42.000Z</time></trkpt>
        <trkpt lat="29.3502056" lon="103.0210797"><ele>3164.03</ele><time>2026-05-07T20:50:52.000Z</time></trkpt>
        <trkpt lat="29.3502585" lon="103.0209753"><ele>3163.16</ele><time>2026-05-07T20:51:00.000Z</time></trkpt>
        <trkpt lat="29.350313" lon="103.0208591"><ele>3162.06</ele><time>2026-05-07T20:51:08.000Z</time></trkpt>
        <trkpt lat="29.3503874" lon="103.0207556"><ele>3161.17</ele><time>2026-05-07T20:51:16.000Z</time></trkpt>
        <trkpt lat="29.3504819" lon="103.0206814"><ele>3160.41</ele><time>2026-05-07T20:51:26.000Z</time></trkpt>
        <trkpt lat="29.3505765" lon="103.0205914"><ele>3160.45</ele><time>2026-05-07T20:51:36.000Z</time></trkpt>
        <trkpt lat="29.3506594" lon="103.0205065"><ele>3160.34</ele><time>2026-05-07T20:51:44.000Z</time></trkpt>
        <trkpt lat="29.350731" lon="103.0204347"><ele>3160.41</ele><time>2026-05-07T20:51:52.000Z</time></trkpt>
        <trkpt lat="29.3507786" lon="103.0203411"><ele>3160.88</ele><time>2026-05-07T20:52:00.000Z</time></trkpt>
        <trkpt lat="29.3508419" lon="103.0202586"><ele>3161.62</ele><time>2026-05-07T20:52:08.000Z</time></trkpt>
        <trkpt lat="29.3509139" lon="103.0201773"><ele>3162.82</ele><time>2026-05-07T20:52:18.000Z</time></trkpt>
        <trkpt lat="29.3510004" lon="103.0201286"><ele>3164.06</ele><time>2026-05-07T20:52:26.000Z</time></trkpt>
        <trkpt lat="29.3510905" lon="103.020083"><ele>3164.85</ele><time>2026-05-07T20:52:36.000Z</time></trkpt>
        <trkpt lat="29.3511721" lon="103.0200052"><ele>3165.09</ele><time>2026-05-07T20:52:46.000Z</time></trkpt>
        <trkpt lat="29.3512323" lon="103.0199171"><ele>3165.69</ele><time>2026-05-07T20:52:56.000Z</time></trkpt>
        <trkpt lat="29.3513161" lon="103.0198376"><ele>3166.43</ele><time>2026-05-07T20:53:06.000Z</time></trkpt>
        <trkpt lat="29.3514072" lon="103.0197749"><ele>3167.1</ele><time>2026-05-07T20:53:14.000Z</time></trkpt>
        <trkpt lat="29.351499" lon="103.0197411"><ele>3167.19</ele><time>2026-05-07T20:53:22.000Z</time></trkpt>
        <trkpt lat="29.3515967" lon="103.0196994"><ele>3166.89</ele><time>2026-05-07T20:53:30.000Z</time></trkpt>
        <trkpt lat="29.351691" lon="103.0196667"><ele>3167.11</ele><time>2026-05-07T20:53:38.000Z</time></trkpt>
        <trkpt lat="29.3517836" lon="103.0196715"><ele>3167.24</ele><time>2026-05-07T20:53:46.000Z</time></trkpt>
        <trkpt lat="29.3518766" lon="103.0196643"><ele>3167.22</ele><time>2026-05-07T20:53:56.000Z</time></trkpt>
        <trkpt lat="29.3519712" lon="103.0196464"><ele>3166.61</ele><time>2026-05-07T20:54:08.000Z</time></trkpt>
        <trkpt lat="29.352065" lon="103.0196202"><ele>3165.44</ele><time>2026-05-07T20:54:24.000Z</time></trkpt>
        <trkpt lat="29.3521609" lon="103.0195698"><ele>3163.7</ele><time>2026-05-07T20:54:40.000Z</time></trkpt>
        <trkpt lat="29.3522452" lon="103.0195075"><ele>3160.61</ele><time>2026-05-07T20:54:48.000Z</time></trkpt>
        <trkpt lat="29.3523312" lon="103.0194575"><ele>3157.68</ele><time>2026-05-07T20:54:54.000Z</time></trkpt>
        <trkpt lat="29.3524098" lon="103.0194022"><ele>3155.49</ele><time>2026-05-07T20:55:10.000Z</time></trkpt>
        <trkpt lat="29.3524671" lon="103.0193238"><ele>3153.09</ele><time>2026-05-07T20:55:30.000Z</time></trkpt>
        <trkpt lat="29.3525433" lon="103.0192661"><ele>3150.04</ele><time>2026-05-07T20:56:10.000Z</time></trkpt>
        <trkpt lat="29.3526105" lon="103.0193102"><ele>3146.32</ele><time>2026-05-07T20:56:36.000Z</time></trkpt>
        <trkpt lat="29.3526105" lon="103.0193102"><ele>3146.32</ele><time>2026-05-07T20:57:29.000Z</time></trkpt>
        <trkpt lat="29.3526105" lon="103.0193102"><ele>3146.32</ele><time>2026-05-07T20:58:41.000Z</time></trkpt>
        <trkpt lat="29.3526105" lon="103.0193102"><ele>3146.32</ele><time>2026-05-07T20:59:31.000Z</time></trkpt>
        <trkpt lat="29.3529283" lon="103.0193067"><ele>3142.18</ele><time>2026-05-07T20:59:33.000Z</time></trkpt>
        <trkpt lat="29.3529283" lon="103.0193067"><ele>3142.18</ele><time>2026-05-07T21:00:08.000Z</time></trkpt>
        <trkpt lat="29.3530047" lon="103.0193642"><ele>3125.11</ele><time>2026-05-07T21:00:34.000Z</time></trkpt>
        <trkpt lat="29.3530897" lon="103.0194072"><ele>3112.42</ele><time>2026-05-07T21:00:56.000Z</time></trkpt>
        <trkpt lat="29.3530707" lon="103.0194884"><ele>3102.22</ele><time>2026-05-07T21:01:28.000Z</time></trkpt>
        <trkpt lat="29.3530768" lon="103.0195895"><ele>3093.13</ele><time>2026-05-07T21:01:58.000Z</time></trkpt>
        <trkpt lat="29.3531561" lon="103.0196333"><ele>3086.36</ele><time>2026-05-07T21:02:28.000Z</time></trkpt>
        <trkpt lat="29.3532501" lon="103.0196338"><ele>3080.01</ele><time>2026-05-07T21:02:48.000Z</time></trkpt>
        <trkpt lat="29.3533313" lon="103.0195766"><ele>3074.24</ele><time>2026-05-07T21:03:02.000Z</time></trkpt>
        <trkpt lat="29.3534242" lon="103.0195694"><ele>3069.45</ele><time>2026-05-07T21:03:44.000Z</time></trkpt>
        <trkpt lat="29.3533679" lon="103.0195741"><ele>3066.98</ele><time>2026-05-07T21:03:52.000Z</time></trkpt>
        <trkpt lat="29.3533679" lon="103.0195741"><ele>3066.98</ele><time>2026-05-07T21:04:09.000Z</time></trkpt>
        <trkpt lat="29.3533889" lon="103.0194679"><ele>3064.58</ele><time>2026-05-07T21:04:31.000Z</time></trkpt>
        <trkpt lat="29.3533889" lon="103.0194679"><ele>3064.58</ele><time>2026-05-07T21:04:54.000Z</time></trkpt>
        <trkpt lat="29.3533889" lon="103.0194679"><ele>3064.58</ele><time>2026-05-07T21:06:03.000Z</time></trkpt>
        <trkpt lat="29.3534883" lon="103.019745"><ele>3059.21</ele><time>2026-05-07T21:06:19.000Z</time></trkpt>
        <trkpt lat="29.3534883" lon="103.019745"><ele>3059.21</ele><time>2026-05-07T21:06:50.000Z</time></trkpt>
        <trkpt lat="29.3534877" lon="103.0198522"><ele>3048.67</ele><time>2026-05-07T21:07:04.000Z</time></trkpt>
        <trkpt lat="29.3535632" lon="103.0198881"><ele>3040.42</ele><time>2026-05-07T21:07:24.000Z</time></trkpt>
        <trkpt lat="29.3536459" lon="103.0198503"><ele>3033.4</ele><time>2026-05-07T21:07:36.000Z</time></trkpt>
        <trkpt lat="29.3537259" lon="103.0198857"><ele>3027.81</ele><time>2026-05-07T21:07:58.000Z</time></trkpt>
        <trkpt lat="29.3538004" lon="103.0199511"><ele>3022.51</ele><time>2026-05-07T21:08:16.000Z</time></trkpt>
        <trkpt lat="29.3538857" lon="103.019993"><ele>3017.95</ele><time>2026-05-07T21:08:36.000Z</time></trkpt>
        <trkpt lat="29.353956" lon="103.020058"><ele>3012.77</ele><time>2026-05-07T21:08:46.000Z</time></trkpt>
        <trkpt lat="29.3539876" lon="103.0201543"><ele>3007.83</ele><time>2026-05-07T21:09:00.000Z</time></trkpt>
        <trkpt lat="29.3540543" lon="103.0202095"><ele>3003.95</ele><time>2026-05-07T21:09:12.000Z</time></trkpt>
        <trkpt lat="29.3541337" lon="103.0202624"><ele>3001.43</ele><time>2026-05-07T21:09:24.000Z</time></trkpt>
        <trkpt lat="29.354227" lon="103.0202741"><ele>2999.35</ele><time>2026-05-07T21:09:42.000Z</time></trkpt>
        <trkpt lat="29.3543294" lon="103.0202689"><ele>2997.57</ele><time>2026-05-07T21:10:00.000Z</time></trkpt>
        <trkpt lat="29.3544501" lon="103.0202978"><ele>2995.52</ele><time>2026-05-07T21:10:46.000Z</time></trkpt>
        <trkpt lat="29.3545462" lon="103.0202613"><ele>2991.98</ele><time>2026-05-07T21:11:18.000Z</time></trkpt>
        <trkpt lat="29.354648" lon="103.020249"><ele>2987.52</ele><time>2026-05-07T21:11:30.000Z</time></trkpt>
        <trkpt lat="29.354741" lon="103.0202877"><ele>2983.81</ele><time>2026-05-07T21:11:40.000Z</time></trkpt>
        <trkpt lat="29.3548308" lon="103.0202928"><ele>2980.58</ele><time>2026-05-07T21:11:58.000Z</time></trkpt>
        <trkpt lat="29.3549262" lon="103.0202856"><ele>2977.71</ele><time>2026-05-07T21:12:26.000Z</time></trkpt>
        <trkpt lat="29.3550139" lon="103.0203119"><ele>2975.04</ele><time>2026-05-07T21:12:58.000Z</time></trkpt>
        <trkpt lat="29.3551063" lon="103.0203388"><ele>2972.4</ele><time>2026-05-07T21:13:12.000Z</time></trkpt>
        <trkpt lat="29.355202" lon="103.0203221"><ele>2970.42</ele><time>2026-05-07T21:13:28.000Z</time></trkpt>
        <trkpt lat="29.3552964" lon="103.0203174"><ele>2968.82</ele><time>2026-05-07T21:13:50.000Z</time></trkpt>
        <trkpt lat="29.3554026" lon="103.0203267"><ele>2968.42</ele><time>2026-05-07T21:14:08.000Z</time></trkpt>
        <trkpt lat="29.3555068" lon="103.0203627"><ele>2968.54</ele><time>2026-05-07T21:14:18.000Z</time></trkpt>
        <trkpt lat="29.3555971" lon="103.0203441"><ele>2968.87</ele><time>2026-05-07T21:14:32.000Z</time></trkpt>
        <trkpt lat="29.3556946" lon="103.0203401"><ele>2968.71</ele><time>2026-05-07T21:14:48.000Z</time></trkpt>
        <trkpt lat="29.3557666" lon="103.0202721"><ele>2967.76</ele><time>2026-05-07T21:15:06.000Z</time></trkpt>
        <trkpt lat="29.3558517" lon="103.0202211"><ele>2964.64</ele><time>2026-05-07T21:15:26.000Z</time></trkpt>
        <trkpt lat="29.3559442" lon="103.0201887"><ele>2961.31</ele><time>2026-05-07T21:15:42.000Z</time></trkpt>
        <trkpt lat="29.3560295" lon="103.0201166"><ele>2957.39</ele><time>2026-05-07T21:15:58.000Z</time></trkpt>
        <trkpt lat="29.3561204" lon="103.0200633"><ele>2954.08</ele><time>2026-05-07T21:16:06.000Z</time></trkpt>
        <trkpt lat="29.3562161" lon="103.0200475"><ele>2952.76</ele><time>2026-05-07T21:16:16.000Z</time></trkpt>
        <trkpt lat="29.3563095" lon="103.020028"><ele>2952.73</ele><time>2026-05-07T21:16:26.000Z</time></trkpt>
        <trkpt lat="29.3563981" lon="103.0199774"><ele>2953.54</ele><time>2026-05-07T21:16:42.000Z</time></trkpt>
        <trkpt lat="29.3564897" lon="103.0199422"><ele>2953.26</ele><time>2026-05-07T21:16:52.000Z</time></trkpt>
        <trkpt lat="29.3565389" lon="103.0198625"><ele>2952.81</ele><time>2026-05-07T21:17:20.000Z</time></trkpt>
        <trkpt lat="29.3565988" lon="103.019765"><ele>2949.58</ele><time>2026-05-07T21:17:42.000Z</time></trkpt>
        <trkpt lat="29.3566499" lon="103.0196597"><ele>2946.32</ele><time>2026-05-07T21:18:02.000Z</time></trkpt>
        <trkpt lat="29.3567022" lon="103.0195537"><ele>2943.17</ele><time>2026-05-07T21:18:18.000Z</time></trkpt>
        <trkpt lat="29.3567382" lon="103.0194428"><ele>2939.83</ele><time>2026-05-07T21:18:36.000Z</time></trkpt>
        <trkpt lat="29.35679" lon="103.0193523"><ele>2935.04</ele><time>2026-05-07T21:18:54.000Z</time></trkpt>
        <trkpt lat="29.3568523" lon="103.0192762"><ele>2931.15</ele><time>2026-05-07T21:19:06.000Z</time></trkpt>
        <trkpt lat="29.3569119" lon="103.0191935"><ele>2928.25</ele><time>2026-05-07T21:19:14.000Z</time></trkpt>
        <trkpt lat="29.3569848" lon="103.0191258"><ele>2925.65</ele><time>2026-05-07T21:19:20.000Z</time></trkpt>
        <trkpt lat="29.3570398" lon="103.0190435"><ele>2923.05</ele><time>2026-05-07T21:19:36.000Z</time></trkpt>
        <trkpt lat="29.3570549" lon="103.0189347"><ele>2920.01</ele><time>2026-05-07T21:19:56.000Z</time></trkpt>
        <trkpt lat="29.357121" lon="103.018903"><ele>2916.52</ele><time>2026-05-07T21:20:18.000Z</time></trkpt>
        <trkpt lat="29.3571594" lon="103.0188209"><ele>2913.12</ele><time>2026-05-07T21:20:30.000Z</time></trkpt>
        <trkpt lat="29.3572187" lon="103.0187445"><ele>2910.48</ele><time>2026-05-07T21:21:24.000Z</time></trkpt>
        <trkpt lat="29.3572977" lon="103.0186876"><ele>2906.88</ele><time>2026-05-07T21:21:44.000Z</time></trkpt>
        <trkpt lat="29.3573618" lon="103.0186128"><ele>2901.94</ele><time>2026-05-07T21:22:04.000Z</time></trkpt>
        <trkpt lat="29.3574441" lon="103.0186296"><ele>2896.59</ele><time>2026-05-07T21:22:24.000Z</time></trkpt>
        <trkpt lat="29.3575242" lon="103.0185913"><ele>2891.22</ele><time>2026-05-07T21:22:48.000Z</time></trkpt>
        <trkpt lat="29.3576126" lon="103.0185807"><ele>2884.2</ele><time>2026-05-07T21:23:28.000Z</time></trkpt>
        <trkpt lat="29.3577012" lon="103.0186021"><ele>2875.38</ele><time>2026-05-07T21:24:24.000Z</time></trkpt>
        <trkpt lat="29.3577828" lon="103.0185674"><ele>2864.89</ele><time>2026-05-07T21:25:02.000Z</time></trkpt>
        <trkpt lat="29.3578265" lon="103.0186352"><ele>2855.78</ele><time>2026-05-07T21:25:26.000Z</time></trkpt>
        <trkpt lat="29.3578452" lon="103.0187383"><ele>2847.53</ele><time>2026-05-07T21:25:42.000Z</time></trkpt>
        <trkpt lat="29.3579134" lon="103.0187571"><ele>2841.62</ele><time>2026-05-07T21:26:02.000Z</time></trkpt>
        <trkpt lat="29.3579921" lon="103.0187181"><ele>2835.98</ele><time>2026-05-07T21:26:36.000Z</time></trkpt>
        <trkpt lat="29.3580821" lon="103.0186565"><ele>2829.02</ele><time>2026-05-07T21:26:50.000Z</time></trkpt>
        <trkpt lat="29.3581661" lon="103.018591"><ele>2822.86</ele><time>2026-05-07T21:27:12.000Z</time></trkpt>
        <trkpt lat="29.3581661" lon="103.018591"><ele>2822.86</ele><time>2026-05-07T21:27:47.000Z</time></trkpt>
        <trkpt lat="29.3582642" lon="103.018564"><ele>2815.82</ele><time>2026-05-07T21:27:55.000Z</time></trkpt>
        <trkpt lat="29.3582642" lon="103.018564"><ele>2815.82</ele><time>2026-05-07T21:27:58.000Z</time></trkpt>
        <trkpt lat="29.358367" lon="103.0185469"><ele>2809.45</ele><time>2026-05-07T21:28:30.000Z</time></trkpt>
        <trkpt lat="29.358367" lon="103.0185469"><ele>2809.45</ele><time>2026-05-07T21:29:03.000Z</time></trkpt>
        <trkpt lat="29.3584083" lon="103.0187517"><ele>2802.8</ele><time>2026-05-07T21:29:49.000Z</time></trkpt>
        <trkpt lat="29.3584083" lon="103.0187517"><ele>2802.8</ele><time>2026-05-07T21:30:10.000Z</time></trkpt>
        <trkpt lat="29.3583442" lon="103.0188332"><ele>2792.35</ele><time>2026-05-07T21:30:30.000Z</time></trkpt>
        <trkpt lat="29.3582994" lon="103.0189293"><ele>2783.64</ele><time>2026-05-07T21:30:46.000Z</time></trkpt>
        <trkpt lat="29.3582303" lon="103.0190047"><ele>2776.14</ele><time>2026-05-07T21:31:00.000Z</time></trkpt>
        <trkpt lat="29.3582226" lon="103.0190976"><ele>2770.01</ele><time>2026-05-07T21:31:30.000Z</time></trkpt>
        <trkpt lat="29.3582926" lon="103.0191642"><ele>2763.68</ele><time>2026-05-07T21:32:04.000Z</time></trkpt>
        <trkpt lat="29.3583896" lon="103.0191831"><ele>2758.06</ele><time>2026-05-07T21:32:24.000Z</time></trkpt>
        <trkpt lat="29.3584659" lon="103.0192597"><ele>2752.87</ele><time>2026-05-07T21:33:06.000Z</time></trkpt>
        <trkpt lat="29.35853" lon="103.0193569"><ele>2745.79</ele><time>2026-05-07T21:33:36.000Z</time></trkpt>
        <trkpt lat="29.3586111" lon="103.0193551"><ele>2737.62</ele><time>2026-05-07T21:34:02.000Z</time></trkpt>
        <trkpt lat="29.3587021" lon="103.0193026"><ele>2729.52</ele><time>2026-05-07T21:34:36.000Z</time></trkpt>
        <trkpt lat="29.3586906" lon="103.0193876"><ele>2720.52</ele><time>2026-05-07T21:35:12.000Z</time></trkpt>
        <trkpt lat="29.3586193" lon="103.0194716"><ele>2712.51</ele><time>2026-05-07T21:35:30.000Z</time></trkpt>
        <trkpt lat="29.3585163" lon="103.0194815"><ele>2705.71</ele><time>2026-05-07T21:35:42.000Z</time></trkpt>
        <trkpt lat="29.3584326" lon="103.0195345"><ele>2701.36</ele><time>2026-05-07T21:35:54.000Z</time></trkpt>
        <trkpt lat="29.358361" lon="103.0196122"><ele>2698.02</ele><time>2026-05-07T21:36:14.000Z</time></trkpt>
        <trkpt lat="29.358324" lon="103.0197169"><ele>2694.7</ele><time>2026-05-07T21:36:38.000Z</time></trkpt>
        <trkpt lat="29.3583024" lon="103.0198245"><ele>2692.59</ele><time>2026-05-07T21:37:08.000Z</time></trkpt>
        <trkpt lat="29.3582784" lon="103.0199295"><ele>2689.2</ele><time>2026-05-07T21:37:38.000Z</time></trkpt>
        <trkpt lat="29.3583017" lon="103.0200308"><ele>2685.59</ele><time>2026-05-07T21:37:58.000Z</time></trkpt>
        <trkpt lat="29.3583791" lon="103.02001"><ele>2681.25</ele><time>2026-05-07T21:38:24.000Z</time></trkpt>
        <trkpt lat="29.3584794" lon="103.0199682"><ele>2674.82</ele><time>2026-05-07T21:38:46.000Z</time></trkpt>
        <trkpt lat="29.3585773" lon="103.0199766"><ele>2668.19</ele><time>2026-05-07T21:39:06.000Z</time></trkpt>
        <trkpt lat="29.3586544" lon="103.0199217"><ele>2660.71</ele><time>2026-05-07T21:39:26.000Z</time></trkpt>
        <trkpt lat="29.3587308" lon="103.0198534"><ele>2653.05</ele><time>2026-05-07T21:39:44.000Z</time></trkpt>
        <trkpt lat="29.3588233" lon="103.0198333"><ele>2646.75</ele><time>2026-05-07T21:40:50.000Z</time></trkpt>
        <trkpt lat="29.3588983" lon="103.0197733"><ele>2639.11</ele><time>2026-05-07T21:41:12.000Z</time></trkpt>
        <trkpt lat="29.358986" lon="103.0197754"><ele>2632.7</ele><time>2026-05-07T21:41:34.000Z</time></trkpt>
        <trkpt lat="29.3590798" lon="103.0197794"><ele>2626.85</ele><time>2026-05-07T21:41:58.000Z</time></trkpt>
        <trkpt lat="29.3591731" lon="103.0197455"><ele>2621.32</ele><time>2026-05-07T21:42:20.000Z</time></trkpt>
        <trkpt lat="29.3592696" lon="103.0197121"><ele>2615.68</ele><time>2026-05-07T21:42:50.000Z</time></trkpt>
        <trkpt lat="29.3593469" lon="103.0197512"><ele>2609.66</ele><time>2026-05-07T21:43:10.000Z</time></trkpt>
        <trkpt lat="29.3594156" lon="103.0198226"><ele>2603.79</ele><time>2026-05-07T21:43:34.000Z</time></trkpt>
        <trkpt lat="29.3594883" lon="103.0198971"><ele>2598.59</ele><time>2026-05-07T21:43:56.000Z</time></trkpt>
        <trkpt lat="29.3595747" lon="103.0199365"><ele>2593.04</ele><time>2026-05-07T21:44:20.000Z</time></trkpt>
        <trkpt lat="29.3596413" lon="103.0198819"><ele>2587.17</ele><time>2026-05-07T21:44:34.000Z</time></trkpt>
        <trkpt lat="29.3597025" lon="103.0197914"><ele>2581.55</ele><time>2026-05-07T21:44:56.000Z</time></trkpt>
        <trkpt lat="29.3597814" lon="103.0197183"><ele>2575.89</ele><time>2026-05-07T21:45:12.000Z</time></trkpt>
        <trkpt lat="29.3598561" lon="103.0196478"><ele>2570.52</ele><time>2026-05-07T21:45:38.000Z</time></trkpt>
        <trkpt lat="29.3599363" lon="103.0195936"><ele>2564.49</ele><time>2026-05-07T21:45:56.000Z</time></trkpt>
        <trkpt lat="29.3600308" lon="103.0195837"><ele>2559.2</ele><time>2026-05-07T21:46:24.000Z</time></trkpt>
        <trkpt lat="29.3601152" lon="103.0195469"><ele>2554.51</ele><time>2026-05-07T21:46:50.000Z</time></trkpt>
        <trkpt lat="29.360205" lon="103.0195402"><ele>2549.6</ele><time>2026-05-07T21:47:10.000Z</time></trkpt>
        <trkpt lat="29.360283" lon="103.0195908"><ele>2544.44</ele><time>2026-05-07T21:47:28.000Z</time></trkpt>
        <trkpt lat="29.3603702" lon="103.0196545"><ele>2539.39</ele><time>2026-05-07T21:47:42.000Z</time></trkpt>
        <trkpt lat="29.3604625" lon="103.0197165"><ele>2534.62</ele><time>2026-05-07T21:47:58.000Z</time></trkpt>
        <trkpt lat="29.3605565" lon="103.0196885"><ele>2528.85</ele><time>2026-05-07T21:48:08.000Z</time></trkpt>
        <trkpt lat="29.3606318" lon="103.0196164"><ele>2523.62</ele><time>2026-05-07T21:48:16.000Z</time></trkpt>
        <trkpt lat="29.3607001" lon="103.0195247"><ele>2519.01</ele><time>2026-05-07T21:48:26.000Z</time></trkpt>
        <trkpt lat="29.3607866" lon="103.0194693"><ele>2514.27</ele><time>2026-05-07T21:48:40.000Z</time></trkpt>
        <trkpt lat="29.360877" lon="103.0194357"><ele>2509.51</ele><time>2026-05-07T21:48:52.000Z</time></trkpt>
        <trkpt lat="29.3609681" lon="103.0194075"><ele>2505.38</ele><time>2026-05-07T21:49:02.000Z</time></trkpt>
        <trkpt lat="29.3610678" lon="103.0193875"><ele>2501.86</ele><time>2026-05-07T21:49:16.000Z</time></trkpt>
        <trkpt lat="29.3611629" lon="103.0193608"><ele>2497.88</ele><time>2026-05-07T21:49:30.000Z</time></trkpt>
        <trkpt lat="29.361258" lon="103.0193582"><ele>2493.41</ele><time>2026-05-07T21:49:46.000Z</time></trkpt>
        <trkpt lat="29.3613532" lon="103.0193656"><ele>2488.63</ele><time>2026-05-07T21:50:00.000Z</time></trkpt>
        <trkpt lat="29.3614483" lon="103.0193914"><ele>2484.14</ele><time>2026-05-07T21:50:14.000Z</time></trkpt>
        <trkpt lat="29.3615308" lon="103.0193539"><ele>2480.04</ele><time>2026-05-07T21:50:26.000Z</time></trkpt>
        <trkpt lat="29.3616237" lon="103.0193503"><ele>2475.81</ele><time>2026-05-07T21:50:38.000Z</time></trkpt>
        <trkpt lat="29.3617212" lon="103.019373"><ele>2471.5</ele><time>2026-05-07T21:50:48.000Z</time></trkpt>
        <trkpt lat="29.3618163" lon="103.0193861"><ele>2467.2</ele><time>2026-05-07T21:50:56.000Z</time></trkpt>
        <trkpt lat="29.361914" lon="103.0194001"><ele>2463.24</ele><time>2026-05-07T21:51:08.000Z</time></trkpt>
        <trkpt lat="29.3620175" lon="103.0193841"><ele>2458.88</ele><time>2026-05-07T21:51:20.000Z</time></trkpt>
        <trkpt lat="29.3621055" lon="103.0193218"><ele>2453.86</ele><time>2026-05-07T21:51:30.000Z</time></trkpt>
        <trkpt lat="29.3621949" lon="103.0193042"><ele>2450.09</ele><time>2026-05-07T21:51:40.000Z</time></trkpt>
        <trkpt lat="29.3622667" lon="103.0192324"><ele>2446.95</ele><time>2026-05-07T21:51:50.000Z</time></trkpt>
        <trkpt lat="29.3623448" lon="103.0192453"><ele>2444.22</ele><time>2026-05-07T21:52:00.000Z</time></trkpt>
        <trkpt lat="29.3623737" lon="103.0191716"><ele>2441.37</ele><time>2026-05-07T21:52:18.000Z</time></trkpt>
        <trkpt lat="29.3624438" lon="103.019143"><ele>2439.66</ele><time>2026-05-07T21:52:32.000Z</time></trkpt>
        <trkpt lat="29.3625367" lon="103.0191316"><ele>2439.25</ele><time>2026-05-07T21:52:46.000Z</time></trkpt>
        <trkpt lat="29.362646" lon="103.0191054"><ele>2439.53</ele><time>2026-05-07T21:52:58.000Z</time></trkpt>
        <trkpt lat="29.362732" lon="103.0190186"><ele>2440.55</ele><time>2026-05-07T21:53:06.000Z</time></trkpt>
        <trkpt lat="29.3628216" lon="103.0189849"><ele>2441.82</ele><time>2026-05-07T21:53:20.000Z</time></trkpt>
        <trkpt lat="29.3629165" lon="103.0189964"><ele>2443.45</ele><time>2026-05-07T21:53:48.000Z</time></trkpt>
        <trkpt lat="29.3629984" lon="103.0189495"><ele>2443.43</ele><time>2026-05-07T21:54:06.000Z</time></trkpt>
        <trkpt lat="29.3629984" lon="103.0189495"><ele>2443.43</ele><time>2026-05-07T21:54:15.000Z</time></trkpt>
      </trkseg>
      <trkseg>
        <trkpt lat="29.363121" lon="103.0189498"><ele>2442.68</ele><time>2026-05-07T21:54:17.000Z</time></trkpt>
        <trkpt lat="29.363121" lon="103.0189498"><ele>2442.68</ele><time>2026-05-07T21:54:22.000Z</time></trkpt>
        <trkpt lat="29.3631357" lon="103.0188765"><ele>2442.43</ele><time>2026-05-07T21:54:40.000Z</time></trkpt>
        <trkpt lat="29.3631025" lon="103.0187731"><ele>2442.5</ele><time>2026-05-07T21:54:48.000Z</time></trkpt>
        <trkpt lat="29.3630607" lon="103.0186634"><ele>2443.02</ele><time>2026-05-07T21:54:58.000Z</time></trkpt>
        <trkpt lat="29.363026" lon="103.018545"><ele>2443.83</ele><time>2026-05-07T21:55:10.000Z</time></trkpt>
        <trkpt lat="29.3629889" lon="103.0184382"><ele>2444.5</ele><time>2026-05-07T21:55:28.000Z</time></trkpt>
        <trkpt lat="29.3629433" lon="103.0183384"><ele>2445.15</ele><time>2026-05-07T21:55:38.000Z</time></trkpt>
        <trkpt lat="29.3629001" lon="103.0182378"><ele>2445.73</ele><time>2026-05-07T21:55:48.000Z</time></trkpt>
        <trkpt lat="29.3628587" lon="103.0181416"><ele>2445.93</ele><time>2026-05-07T21:55:56.000Z</time></trkpt>
        <trkpt lat="29.3628132" lon="103.0180469"><ele>2446.05</ele><time>2026-05-07T21:56:06.000Z</time></trkpt>
        <trkpt lat="29.36275" lon="103.0179537"><ele>2446.28</ele><time>2026-05-07T21:56:18.000Z</time></trkpt>
        <trkpt lat="29.3626869" lon="103.0178659"><ele>2445.9</ele><time>2026-05-07T21:56:26.000Z</time></trkpt>
        <trkpt lat="29.3626223" lon="103.017751"><ele>2445.43</ele><time>2026-05-07T21:56:36.000Z</time></trkpt>
        <trkpt lat="29.3625629" lon="103.0176333"><ele>2445.55</ele><time>2026-05-07T21:56:44.000Z</time></trkpt>
        <trkpt lat="29.3625044" lon="103.0175171"><ele>2445.7</ele><time>2026-05-07T21:56:54.000Z</time></trkpt>
        <trkpt lat="29.3624651" lon="103.0174099"><ele>2445.18</ele><time>2026-05-07T21:57:04.000Z</time></trkpt>
        <trkpt lat="29.3624088" lon="103.0173237"><ele>2445.23</ele><time>2026-05-07T21:57:12.000Z</time></trkpt>
        <trkpt lat="29.3623389" lon="103.0172325"><ele>2445.78</ele><time>2026-05-07T21:57:22.000Z</time></trkpt>
        <trkpt lat="29.3622632" lon="103.0171543"><ele>2446.39</ele><time>2026-05-07T21:57:32.000Z</time></trkpt>
        <trkpt lat="29.3621763" lon="103.0170718"><ele>2447.43</ele><time>2026-05-07T21:57:42.000Z</time></trkpt>
        <trkpt lat="29.3620924" lon="103.0169992"><ele>2448.75</ele><time>2026-05-07T21:57:50.000Z</time></trkpt>
        <trkpt lat="29.3620243" lon="103.0169075"><ele>2450.49</ele><time>2026-05-07T21:58:00.000Z</time></trkpt>
        <trkpt lat="29.3619537" lon="103.0168256"><ele>2451.87</ele><time>2026-05-07T21:58:08.000Z</time></trkpt>
        <trkpt lat="29.3618715" lon="103.0167605"><ele>2452.4</ele><time>2026-05-07T21:58:16.000Z</time></trkpt>
        <trkpt lat="29.3617948" lon="103.0167014"><ele>2452.74</ele><time>2026-05-07T21:58:24.000Z</time></trkpt>
        <trkpt lat="29.3617082" lon="103.0166473"><ele>2452.64</ele><time>2026-05-07T21:58:34.000Z</time></trkpt>
        <trkpt lat="29.3616179" lon="103.0166078"><ele>2452.84</ele><time>2026-05-07T21:58:40.000Z</time></trkpt>
        <trkpt lat="29.3615256" lon="103.0165767"><ele>2453.21</ele><time>2026-05-07T21:58:50.000Z</time></trkpt>
        <trkpt lat="29.3614304" lon="103.0165551"><ele>2454.84</ele><time>2026-05-07T21:58:58.000Z</time></trkpt>
        <trkpt lat="29.3613259" lon="103.0165207"><ele>2456.67</ele><time>2026-05-07T21:59:08.000Z</time></trkpt>
        <trkpt lat="29.3612258" lon="103.0164768"><ele>2457.72</ele><time>2026-05-07T21:59:22.000Z</time></trkpt>
        <trkpt lat="29.3611355" lon="103.0164246"><ele>2458.35</ele><time>2026-05-07T21:59:46.000Z</time></trkpt>
        <trkpt lat="29.3610514" lon="103.0163699"><ele>2457.21</ele><time>2026-05-07T21:59:56.000Z</time></trkpt>
        <trkpt lat="29.3609667" lon="103.0163013"><ele>2456.05</ele><time>2026-05-07T22:00:04.000Z</time></trkpt>
        <trkpt lat="29.3608798" lon="103.0162232"><ele>2454.86</ele><time>2026-05-07T22:00:12.000Z</time></trkpt>
        <trkpt lat="29.3607969" lon="103.0161439"><ele>2454.32</ele><time>2026-05-07T22:00:22.000Z</time></trkpt>
        <trkpt lat="29.360718" lon="103.0160789"><ele>2454.1</ele><time>2026-05-07T22:00:38.000Z</time></trkpt>
        <trkpt lat="29.3606327" lon="103.0160325"><ele>2454.23</ele><time>2026-05-07T22:00:48.000Z</time></trkpt>
        <trkpt lat="29.3605435" lon="103.0160211"><ele>2454.47</ele><time>2026-05-07T22:01:00.000Z</time></trkpt>
        <trkpt lat="29.3605157" lon="103.0159348"><ele>2453.97</ele><time>2026-05-07T22:01:46.000Z</time></trkpt>
        <trkpt lat="29.3605157" lon="103.0159348"><ele>2453.97</ele><time>2026-05-07T22:02:55.000Z</time></trkpt>
        <trkpt lat="29.3604617" lon="103.0159817"><ele>2452.65</ele><time>2026-05-07T22:03:17.000Z</time></trkpt>
        <trkpt lat="29.3604617" lon="103.0159817"><ele>2452.65</ele><time>2026-05-07T22:03:44.000Z</time></trkpt>
        <trkpt lat="29.3603717" lon="103.015965"><ele>2451.72</ele><time>2026-05-07T22:03:58.000Z</time></trkpt>
        <trkpt lat="29.3603099" lon="103.0158877"><ele>2450.72</ele><time>2026-05-07T22:04:22.000Z</time></trkpt>
        <trkpt lat="29.3602376" lon="103.0158138"><ele>2449.08</ele><time>2026-05-07T22:04:42.000Z</time></trkpt>
        <trkpt lat="29.3601798" lon="103.0157231"><ele>2446.64</ele><time>2026-05-07T22:05:06.000Z</time></trkpt>
        <trkpt lat="29.3602" lon="103.0156033"><ele>2444</ele><time>2026-05-07T22:06:18.000Z</time></trkpt>
        <trkpt lat="29.3602417" lon="103.01551"><ele>2441.2</ele><time>2026-05-07T22:06:34.000Z</time></trkpt>
        <trkpt lat="29.3602833" lon="103.0154054"><ele>2438.75</ele><time>2026-05-07T22:06:50.000Z</time></trkpt>
        <trkpt lat="29.3603623" lon="103.0153489"><ele>2437.31</ele><time>2026-05-07T22:07:22.000Z</time></trkpt>
        <trkpt lat="29.3604254" lon="103.0152724"><ele>2436.1</ele><time>2026-05-07T22:07:48.000Z</time></trkpt>
        <trkpt lat="29.3604254" lon="103.0152724"><ele>2436.1</ele><time>2026-05-07T22:09:09.000Z</time></trkpt>
        <trkpt lat="29.3603783" lon="103.0153683"><ele>2434.85</ele><time>2026-05-07T22:09:51.000Z</time></trkpt>
        <trkpt lat="29.3603783" lon="103.0153683"><ele>2434.85</ele><time>2026-05-07T22:10:08.000Z</time></trkpt>
        <trkpt lat="29.3602617" lon="103.01545"><ele>2437.5</ele><time>2026-05-07T22:10:38.000Z</time></trkpt>
        <trkpt lat="29.3602268" lon="103.0156022"><ele>2439.65</ele><time>2026-05-07T22:11:18.000Z</time></trkpt>
        <trkpt lat="29.3601459" lon="103.0155893"><ele>2440.96</ele><time>2026-05-07T22:12:16.000Z</time></trkpt>
        <trkpt lat="29.360075" lon="103.0155139"><ele>2439.13</ele><time>2026-05-07T22:12:36.000Z</time></trkpt>
        <trkpt lat="29.3599978" lon="103.0154275"><ele>2436.06</ele><time>2026-05-07T22:13:12.000Z</time></trkpt>
        <trkpt lat="29.3600045" lon="103.0153187"><ele>2431.95</ele><time>2026-05-07T22:13:44.000Z</time></trkpt>
        <trkpt lat="29.3600145" lon="103.0151837"><ele>2427.76</ele><time>2026-05-07T22:14:22.000Z</time></trkpt>
        <trkpt lat="29.3600145" lon="103.0151837"><ele>2427.76</ele><time>2026-05-07T22:15:11.000Z</time></trkpt>
        <trkpt lat="29.3600145" lon="103.0151837"><ele>2427.76</ele><time>2026-05-07T22:15:31.000Z</time></trkpt>
        <trkpt lat="29.3600145" lon="103.0151837"><ele>2427.76</ele><time>2026-05-07T22:16:03.000Z</time></trkpt>
        <trkpt lat="29.35996" lon="103.0149167"><ele>2422.31</ele><time>2026-05-07T22:17:11.000Z</time></trkpt>
        <trkpt lat="29.35996" lon="103.0149167"><ele>2422.31</ele><time>2026-05-07T22:17:16.000Z</time></trkpt>
        <trkpt lat="29.3600033" lon="103.0148167"><ele>2412.37</ele><time>2026-05-07T22:18:08.000Z</time></trkpt>
        <trkpt lat="29.3599409" lon="103.0147576"><ele>2403.99</ele><time>2026-05-07T22:18:38.000Z</time></trkpt>
        <trkpt lat="29.3599409" lon="103.0147576"><ele>2403.99</ele><time>2026-05-07T22:19:11.000Z</time></trkpt>
        <trkpt lat="29.3599717" lon="103.014689"><ele>2398.79</ele><time>2026-05-07T22:19:15.000Z</time></trkpt>
        <trkpt lat="29.3599717" lon="103.014689"><ele>2398.79</ele><time>2026-05-07T22:19:24.000Z</time></trkpt>
        <trkpt lat="29.3600348" lon="103.0145938"><ele>2392.3</ele><time>2026-05-07T22:19:34.000Z</time></trkpt>
        <trkpt lat="29.3600594" lon="103.0144901"><ele>2388.17</ele><time>2026-05-07T22:19:42.000Z</time></trkpt>
        <trkpt lat="29.3600696" lon="103.0143818"><ele>2384.44</ele><time>2026-05-07T22:19:50.000Z</time></trkpt>
        <trkpt lat="29.3600749" lon="103.0142716"><ele>2380.08</ele><time>2026-05-07T22:20:00.000Z</time></trkpt>
        <trkpt lat="29.3600808" lon="103.0141529"><ele>2374.75</ele><time>2026-05-07T22:20:08.000Z</time></trkpt>
        <trkpt lat="29.3600976" lon="103.0140204"><ele>2370.13</ele><time>2026-05-07T22:20:16.000Z</time></trkpt>
        <trkpt lat="29.3601027" lon="103.013906"><ele>2366.16</ele><time>2026-05-07T22:20:24.000Z</time></trkpt>
        <trkpt lat="29.3601105" lon="103.0137983"><ele>2363.12</ele><time>2026-05-07T22:20:30.000Z</time></trkpt>
        <trkpt lat="29.3601123" lon="103.0136712"><ele>2360.66</ele><time>2026-05-07T22:20:36.000Z</time></trkpt>
        <trkpt lat="29.3601357" lon="103.0135529"><ele>2359.17</ele><time>2026-05-07T22:20:46.000Z</time></trkpt>
        <trkpt lat="29.3601787" lon="103.013451"><ele>2357.46</ele><time>2026-05-07T22:20:54.000Z</time></trkpt>
        <trkpt lat="29.3602141" lon="103.0133425"><ele>2356.19</ele><time>2026-05-07T22:21:06.000Z</time></trkpt>
        <trkpt lat="29.360225" lon="103.0132307"><ele>2355.98</ele><time>2026-05-07T22:21:22.000Z</time></trkpt>
        <trkpt lat="29.3602367" lon="103.0131175"><ele>2357.24</ele><time>2026-05-07T22:21:42.000Z</time></trkpt>
        <trkpt lat="29.3602785" lon="103.0130239"><ele>2358.04</ele><time>2026-05-07T22:21:58.000Z</time></trkpt>
        <trkpt lat="29.360313" lon="103.0129289"><ele>2358.24</ele><time>2026-05-07T22:22:28.000Z</time></trkpt>
        <trkpt lat="29.3603048" lon="103.0128299"><ele>2358.05</ele><time>2026-05-07T22:22:38.000Z</time></trkpt>
        <trkpt lat="29.3602956" lon="103.0127139"><ele>2358.07</ele><time>2026-05-07T22:22:50.000Z</time></trkpt>
        <trkpt lat="29.3603183" lon="103.0126054"><ele>2358.3</ele><time>2026-05-07T22:22:58.000Z</time></trkpt>
        <trkpt lat="29.3603689" lon="103.0125095"><ele>2358.69</ele><time>2026-05-07T22:23:08.000Z</time></trkpt>
        <trkpt lat="29.3604173" lon="103.012403"><ele>2359.21</ele><time>2026-05-07T22:23:22.000Z</time></trkpt>
        <trkpt lat="29.3604602" lon="103.0122972"><ele>2359.76</ele><time>2026-05-07T22:23:42.000Z</time></trkpt>
        <trkpt lat="29.3605353" lon="103.0122256"><ele>2360.12</ele><time>2026-05-07T22:24:04.000Z</time></trkpt>
        <trkpt lat="29.3606281" lon="103.0120877"><ele>2361.27</ele><time>2026-05-07T22:24:46.000Z</time></trkpt>
        <trkpt lat="29.3606281" lon="103.0120877"><ele>2361.27</ele><time>2026-05-07T22:25:29.000Z</time></trkpt>
        <trkpt lat="29.3607423" lon="103.0118584"><ele>2363.87</ele><time>2026-05-07T22:25:35.000Z</time></trkpt>
        <trkpt lat="29.3607423" lon="103.0118584"><ele>2363.87</ele><time>2026-05-07T22:25:56.000Z</time></trkpt>
        <trkpt lat="29.3607597" lon="103.0117438"><ele>2372.27</ele><time>2026-05-07T22:26:14.000Z</time></trkpt>
        <trkpt lat="29.360777" lon="103.0116338"><ele>2378.99</ele><time>2026-05-07T22:26:26.000Z</time></trkpt>
        <trkpt lat="29.3607325" lon="103.0115392"><ele>2383.94</ele><time>2026-05-07T22:26:40.000Z</time></trkpt>
        <trkpt lat="29.3606791" lon="103.0114489"><ele>2387.84</ele><time>2026-05-07T22:27:26.000Z</time></trkpt>
        <trkpt lat="29.3606916" lon="103.0113516"><ele>2389.97</ele><time>2026-05-07T22:27:40.000Z</time></trkpt>
        <trkpt lat="29.3606982" lon="103.0112373"><ele>2390.67</ele><time>2026-05-07T22:27:56.000Z</time></trkpt>
        <trkpt lat="29.3607079" lon="103.011128"><ele>2391.03</ele><time>2026-05-07T22:28:08.000Z</time></trkpt>
        <trkpt lat="29.3606878" lon="103.0110277"><ele>2391.53</ele><time>2026-05-07T22:28:56.000Z</time></trkpt>
        <trkpt lat="29.3606813" lon="103.0109259"><ele>2392.12</ele><time>2026-05-07T22:29:10.000Z</time></trkpt>
        <trkpt lat="29.3606235" lon="103.010842"><ele>2392.2</ele><time>2026-05-07T22:29:26.000Z</time></trkpt>
        <trkpt lat="29.360533" lon="103.0108459"><ele>2392.11</ele><time>2026-05-07T22:29:40.000Z</time></trkpt>
        <trkpt lat="29.3604347" lon="103.0108521"><ele>2391.59</ele><time>2026-05-07T22:29:56.000Z</time></trkpt>
        <trkpt lat="29.3603543" lon="103.0108073"><ele>2390.99</ele><time>2026-05-07T22:30:08.000Z</time></trkpt>
        <trkpt lat="29.3602701" lon="103.0107585"><ele>2391</ele><time>2026-05-07T22:30:24.000Z</time></trkpt>
        <trkpt lat="29.3601972" lon="103.010687"><ele>2391.26</ele><time>2026-05-07T22:30:56.000Z</time></trkpt>
        <trkpt lat="29.360165" lon="103.0105867"><ele>2392.09</ele><time>2026-05-07T22:31:12.000Z</time></trkpt>
        <trkpt lat="29.3601097" lon="103.0105038"><ele>2392.53</ele><time>2026-05-07T22:31:28.000Z</time></trkpt>
        <trkpt lat="29.3600322" lon="103.0104023"><ele>2393.29</ele><time>2026-05-07T22:32:14.000Z</time></trkpt>
        <trkpt lat="29.3599465" lon="103.0103344"><ele>2396.05</ele><time>2026-05-07T22:32:30.000Z</time></trkpt>
        <trkpt lat="29.3598616" lon="103.0102713"><ele>2398.26</ele><time>2026-05-07T22:32:44.000Z</time></trkpt>
        <trkpt lat="29.3597767" lon="103.0102124"><ele>2400.21</ele><time>2026-05-07T22:33:06.000Z</time></trkpt>
        <trkpt lat="29.3596936" lon="103.0101617"><ele>2402.23</ele><time>2026-05-07T22:33:22.000Z</time></trkpt>
        <trkpt lat="29.3596078" lon="103.0101258"><ele>2403.42</ele><time>2026-05-07T22:33:38.000Z</time></trkpt>
        <trkpt lat="29.3595196" lon="103.0100795"><ele>2404.01</ele><time>2026-05-07T22:33:50.000Z</time></trkpt>
        <trkpt lat="29.3594434" lon="103.010013"><ele>2404.05</ele><time>2026-05-07T22:34:08.000Z</time></trkpt>
        <trkpt lat="29.3593593" lon="103.0100243"><ele>2403.64</ele><time>2026-05-07T22:34:46.000Z</time></trkpt>
        <trkpt lat="29.3593593" lon="103.0100243"><ele>2403.64</ele><time>2026-05-07T22:35:19.000Z</time></trkpt>
        <trkpt lat="29.3593112" lon="103.009875"><ele>2403.06</ele><time>2026-05-07T22:35:43.000Z</time></trkpt>
        <trkpt lat="29.3593112" lon="103.009875"><ele>2403.06</ele><time>2026-05-07T22:36:22.000Z</time></trkpt>
        <trkpt lat="29.3593112" lon="103.009875"><ele>2403.06</ele><time>2026-05-07T22:36:23.000Z</time></trkpt>
        <trkpt lat="29.3595088" lon="103.009578"><ele>2401.62</ele><time>2026-05-07T22:36:35.000Z</time></trkpt>
        <trkpt lat="29.3595088" lon="103.009578"><ele>2401.62</ele><time>2026-05-07T22:36:42.000Z</time></trkpt>
        <trkpt lat="29.3596042" lon="103.0095286"><ele>2397.52</ele><time>2026-05-07T22:36:50.000Z</time></trkpt>
        <trkpt lat="29.359581" lon="103.0095698"><ele>2393.13</ele><time>2026-05-07T22:37:12.000Z</time></trkpt>
        <trkpt lat="29.3595023" lon="103.0096719"><ele>2386.75</ele><time>2026-05-07T22:37:26.000Z</time></trkpt>
        <trkpt lat="29.3594239" lon="103.0097815"><ele>2383.63</ele><time>2026-05-07T22:37:34.000Z</time></trkpt>
        <trkpt lat="29.3593113" lon="103.0098496"><ele>2382.71</ele><time>2026-05-07T22:37:48.000Z</time></trkpt>
        <trkpt lat="29.3593113" lon="103.0098496"><ele>2382.71</ele><time>2026-05-07T22:38:43.000Z</time></trkpt>
      </trkseg>
      <trkseg>
        <trkpt lat="29.3601465" lon="103.0134938"><ele>2385.59</ele><time>2026-05-07T22:51:32.000Z</time></trkpt>
        <trkpt lat="29.3601465" lon="103.0134938"><ele>2385.59</ele><time>2026-05-07T22:52:12.000Z</time></trkpt>
        <trkpt lat="29.3601415" lon="103.0136024"><ele>2383.62</ele><time>2026-05-07T22:52:22.000Z</time></trkpt>
        <trkpt lat="29.3601509" lon="103.0137187"><ele>2382.1</ele><time>2026-05-07T22:52:36.000Z</time></trkpt>
        <trkpt lat="29.3601553" lon="103.0138363"><ele>2381.07</ele><time>2026-05-07T22:52:44.000Z</time></trkpt>
        <trkpt lat="29.3601468" lon="103.0139452"><ele>2380.7</ele><time>2026-05-07T22:52:52.000Z</time></trkpt>
        <trkpt lat="29.3601197" lon="103.0140492"><ele>2381.34</ele><time>2026-05-07T22:53:00.000Z</time></trkpt>
        <trkpt lat="29.3601164" lon="103.0141606"><ele>2382.57</ele><time>2026-05-07T22:53:08.000Z</time></trkpt>
        <trkpt lat="29.3601131" lon="103.0142738"><ele>2383.83</ele><time>2026-05-07T22:53:18.000Z</time></trkpt>
        <trkpt lat="29.3600979" lon="103.0143888"><ele>2385.11</ele><time>2026-05-07T22:53:28.000Z</time></trkpt>
        <trkpt lat="29.3600693" lon="103.0144954"><ele>2386.65</ele><time>2026-05-07T22:53:36.000Z</time></trkpt>
        <trkpt lat="29.3600351" lon="103.0145888"><ele>2388.14</ele><time>2026-05-07T22:53:50.000Z</time></trkpt>
        <trkpt lat="29.3599897" lon="103.0146765"><ele>2389.5</ele><time>2026-05-07T22:54:08.000Z</time></trkpt>
        <trkpt lat="29.3599286" lon="103.0147554"><ele>2389.46</ele><time>2026-05-07T22:54:28.000Z</time></trkpt>
        <trkpt lat="29.3599655" lon="103.0148207"><ele>2388.66</ele><time>2026-05-07T22:54:52.000Z</time></trkpt>
        <trkpt lat="29.3600083" lon="103.0149108"><ele>2389.23</ele><time>2026-05-07T22:55:36.000Z</time></trkpt>
        <trkpt lat="29.3600083" lon="103.0149108"><ele>2389.23</ele><time>2026-05-07T22:56:19.000Z</time></trkpt>
        <trkpt lat="29.3600298" lon="103.015016"><ele>2391.97</ele><time>2026-05-07T22:56:33.000Z</time></trkpt>
        <trkpt lat="29.3600298" lon="103.015016"><ele>2391.97</ele><time>2026-05-07T22:56:34.000Z</time></trkpt>
        <trkpt lat="29.3600321" lon="103.0151249"><ele>2395.51</ele><time>2026-05-07T22:56:58.000Z</time></trkpt>
        <trkpt lat="29.3600321" lon="103.0151249"><ele>2395.51</ele><time>2026-05-07T22:58:01.000Z</time></trkpt>
        <trkpt lat="29.36001" lon="103.0154733"><ele>2399.29</ele><time>2026-05-07T22:58:23.000Z</time></trkpt>
        <trkpt lat="29.36001" lon="103.0154733"><ele>2399.29</ele><time>2026-05-07T22:59:00.000Z</time></trkpt>
        <trkpt lat="29.3600808" lon="103.0155592"><ele>2405.58</ele><time>2026-05-07T22:59:32.000Z</time></trkpt>
        <trkpt lat="29.3601632" lon="103.0156387"><ele>2411.18</ele><time>2026-05-07T23:00:12.000Z</time></trkpt>
        <trkpt lat="29.3601632" lon="103.0156387"><ele>2411.18</ele><time>2026-05-07T23:01:01.000Z</time></trkpt>
        <trkpt lat="29.3603" lon="103.015845"><ele>2416.52</ele><time>2026-05-07T23:01:23.000Z</time></trkpt>
        <trkpt lat="29.3603" lon="103.015845"><ele>2416.52</ele><time>2026-05-07T23:01:52.000Z</time></trkpt>
        <trkpt lat="29.3603682" lon="103.0159267"><ele>2426.32</ele><time>2026-05-07T23:02:24.000Z</time></trkpt>
        <trkpt lat="29.3603682" lon="103.0159267"><ele>2426.32</ele><time>2026-05-07T23:02:45.000Z</time></trkpt>
        <trkpt lat="29.3604253" lon="103.0160135"><ele>2433.88</ele><time>2026-05-07T23:02:47.000Z</time></trkpt>
        <trkpt lat="29.3604253" lon="103.0160135"><ele>2433.88</ele><time>2026-05-07T23:02:54.000Z</time></trkpt>
        <trkpt lat="29.3605103" lon="103.0160455"><ele>2439.65</ele><time>2026-05-07T23:03:12.000Z</time></trkpt>
        <trkpt lat="29.3606018" lon="103.0160788"><ele>2444.53</ele><time>2026-05-07T23:03:46.000Z</time></trkpt>
        <trkpt lat="29.3606957" lon="103.0161053"><ele>2450.41</ele><time>2026-05-07T23:03:56.000Z</time></trkpt>
        <trkpt lat="29.3607982" lon="103.016167"><ele>2454.19</ele><time>2026-05-07T23:04:04.000Z</time></trkpt>
        <trkpt lat="29.3608969" lon="103.0162328"><ele>2456.3</ele><time>2026-05-07T23:04:12.000Z</time></trkpt>
        <trkpt lat="29.360982" lon="103.0162937"><ele>2457.85</ele><time>2026-05-07T23:04:20.000Z</time></trkpt>
        <trkpt lat="29.3610695" lon="103.0163631"><ele>2459.03</ele><time>2026-05-07T23:04:28.000Z</time></trkpt>
        <trkpt lat="29.3611585" lon="103.016428"><ele>2460.22</ele><time>2026-05-07T23:04:36.000Z</time></trkpt>
        <trkpt lat="29.3612331" lon="103.0164968"><ele>2460.9</ele><time>2026-05-07T23:04:46.000Z</time></trkpt>
        <trkpt lat="29.3613151" lon="103.0165545"><ele>2461.12</ele><time>2026-05-07T23:04:52.000Z</time></trkpt>
        <trkpt lat="29.3614068" lon="103.0165792"><ele>2461.67</ele><time>2026-05-07T23:05:02.000Z</time></trkpt>
        <trkpt lat="29.3615046" lon="103.0165997"><ele>2461.94</ele><time>2026-05-07T23:05:08.000Z</time></trkpt>
        <trkpt lat="29.3616192" lon="103.016627"><ele>2462.05</ele><time>2026-05-07T23:05:18.000Z</time></trkpt>
        <trkpt lat="29.3617179" lon="103.0166606"><ele>2461.99</ele><time>2026-05-07T23:05:26.000Z</time></trkpt>
        <trkpt lat="29.3618046" lon="103.0167132"><ele>2462.38</ele><time>2026-05-07T23:05:34.000Z</time></trkpt>
        <trkpt lat="29.3618834" lon="103.0167675"><ele>2462.35</ele><time>2026-05-07T23:05:40.000Z</time></trkpt>
        <trkpt lat="29.3619688" lon="103.0168426"><ele>2461.94</ele><time>2026-05-07T23:05:48.000Z</time></trkpt>
        <trkpt lat="29.3620513" lon="103.0169195"><ele>2461.41</ele><time>2026-05-07T23:05:56.000Z</time></trkpt>
        <trkpt lat="29.3621252" lon="103.0169882"><ele>2460.59</ele><time>2026-05-07T23:06:04.000Z</time></trkpt>
        <trkpt lat="29.3621874" lon="103.0170642"><ele>2459.47</ele><time>2026-05-07T23:06:10.000Z</time></trkpt>
        <trkpt lat="29.3622584" lon="103.0171415"><ele>2458.37</ele><time>2026-05-07T23:06:16.000Z</time></trkpt>
        <trkpt lat="29.3623362" lon="103.017234"><ele>2457.22</ele><time>2026-05-07T23:06:26.000Z</time></trkpt>
        <trkpt lat="29.3624176" lon="103.017328"><ele>2456.52</ele><time>2026-05-07T23:06:34.000Z</time></trkpt>
        <trkpt lat="29.3624963" lon="103.0174215"><ele>2455.95</ele><time>2026-05-07T23:06:42.000Z</time></trkpt>
        <trkpt lat="29.3625611" lon="103.0175306"><ele>2455.5</ele><time>2026-05-07T23:06:50.000Z</time></trkpt>
        <trkpt lat="29.3626082" lon="103.01764"><ele>2455.24</ele><time>2026-05-07T23:06:56.000Z</time></trkpt>
        <trkpt lat="29.3626483" lon="103.0177372"><ele>2454.45</ele><time>2026-05-07T23:07:02.000Z</time></trkpt>
        <trkpt lat="29.362691" lon="103.0178383"><ele>2453.44</ele><time>2026-05-07T23:07:08.000Z</time></trkpt>
        <trkpt lat="29.362732" lon="103.0179511"><ele>2452.52</ele><time>2026-05-07T23:07:14.000Z</time></trkpt>
        <trkpt lat="29.3627828" lon="103.0180569"><ele>2451.69</ele><time>2026-05-07T23:07:20.000Z</time></trkpt>
        <trkpt lat="29.3628363" lon="103.0181482"><ele>2451.44</ele><time>2026-05-07T23:07:26.000Z</time></trkpt>
        <trkpt lat="29.3628879" lon="103.0182444"><ele>2451.12</ele><time>2026-05-07T23:07:32.000Z</time></trkpt>
        <trkpt lat="29.3629334" lon="103.0183405"><ele>2450.34</ele><time>2026-05-07T23:07:38.000Z</time></trkpt>
        <trkpt lat="29.362998" lon="103.0184381"><ele>2449.85</ele><time>2026-05-07T23:07:46.000Z</time></trkpt>
        <trkpt lat="29.3630209" lon="103.0185401"><ele>2449.87</ele><time>2026-05-07T23:07:54.000Z</time></trkpt>
        <trkpt lat="29.3630478" lon="103.0186612"><ele>2449.15</ele><time>2026-05-07T23:08:02.000Z</time></trkpt>
        <trkpt lat="29.363073" lon="103.0187727"><ele>2448.36</ele><time>2026-05-07T23:08:10.000Z</time></trkpt>
        <trkpt lat="29.3631145" lon="103.0188833"><ele>2447.51</ele><time>2026-05-07T23:08:18.000Z</time></trkpt>
        <trkpt lat="29.3631562" lon="103.0189947"><ele>2446.73</ele><time>2026-05-07T23:08:24.000Z</time></trkpt>
        <trkpt lat="29.3631924" lon="103.0191064"><ele>2446.03</ele><time>2026-05-07T23:08:30.000Z</time></trkpt>
        <trkpt lat="29.3631686" lon="103.0190441"><ele>2445.46</ele><time>2026-05-07T23:08:42.000Z</time></trkpt>
        <trkpt lat="29.3631467" lon="103.0189908"><ele>2445.69</ele><time>2026-05-07T23:08:52.000Z</time></trkpt>
        <trkpt lat="29.3632041" lon="103.0189416"><ele>2445.87</ele><time>2026-05-07T23:09:12.000Z</time></trkpt>
        <trkpt lat="29.3632971" lon="103.018941"><ele>2445.54</ele><time>2026-05-07T23:09:18.000Z</time></trkpt>
        <trkpt lat="29.3633834" lon="103.0189916"><ele>2445.39</ele><time>2026-05-07T23:09:24.000Z</time></trkpt>
        <trkpt lat="29.3634873" lon="103.0190281"><ele>2445.44</ele><time>2026-05-07T23:09:36.000Z</time></trkpt>
        <trkpt lat="29.3635821" lon="103.0190734"><ele>2446.58</ele><time>2026-05-07T23:09:48.000Z</time></trkpt>
        <trkpt lat="29.3636743" lon="103.0191146"><ele>2447.62</ele><time>2026-05-07T23:10:00.000Z</time></trkpt>
        <trkpt lat="29.3637726" lon="103.0191293"><ele>2447.87</ele><time>2026-05-07T23:10:12.000Z</time></trkpt>
        <trkpt lat="29.3638192" lon="103.019149"><ele>2447.07</ele><time>2026-05-07T23:10:26.000Z</time></trkpt>
        <trkpt lat="29.3638953" lon="103.0191393"><ele>2445.88</ele><time>2026-05-07T23:10:42.000Z</time></trkpt>
        <trkpt lat="29.3639272" lon="103.0190429"><ele>2443.82</ele><time>2026-05-07T23:10:50.000Z</time></trkpt>
        <trkpt lat="29.3639253" lon="103.018909"><ele>2441.7</ele><time>2026-05-07T23:10:56.000Z</time></trkpt>
        <trkpt lat="29.3639345" lon="103.0187773"><ele>2439.81</ele><time>2026-05-07T23:11:04.000Z</time></trkpt>
        <trkpt lat="29.3639659" lon="103.0186614"><ele>2438.26</ele><time>2026-05-07T23:11:14.000Z</time></trkpt>
        <trkpt lat="29.3639777" lon="103.0185413"><ele>2436.51</ele><time>2026-05-07T23:11:24.000Z</time></trkpt>
        <trkpt lat="29.3639891" lon="103.018424"><ele>2435.22</ele><time>2026-05-07T23:11:34.000Z</time></trkpt>
        <trkpt lat="29.3640199" lon="103.0183245"><ele>2434.43</ele><time>2026-05-07T23:11:42.000Z</time></trkpt>
        <trkpt lat="29.3640769" lon="103.0182428"><ele>2433.73</ele><time>2026-05-07T23:11:48.000Z</time></trkpt>
        <trkpt lat="29.364154" lon="103.018163"><ele>2433.12</ele><time>2026-05-07T23:11:54.000Z</time></trkpt>
        <trkpt lat="29.364234" lon="103.0180687"><ele>2432.85</ele><time>2026-05-07T23:12:02.000Z</time></trkpt>
        <trkpt lat="29.3643179" lon="103.0179919"><ele>2433.17</ele><time>2026-05-07T23:12:08.000Z</time></trkpt>
        <trkpt lat="29.3643958" lon="103.0179131"><ele>2433.1</ele><time>2026-05-07T23:12:14.000Z</time></trkpt>
        <trkpt lat="29.3644518" lon="103.0178166"><ele>2433.06</ele><time>2026-05-07T23:12:20.000Z</time></trkpt>
        <trkpt lat="29.3645084" lon="103.0177295"><ele>2432.86</ele><time>2026-05-07T23:12:28.000Z</time></trkpt>
        <trkpt lat="29.3645914" lon="103.0176629"><ele>2432.58</ele><time>2026-05-07T23:12:36.000Z</time></trkpt>
        <trkpt lat="29.3646834" lon="103.017605"><ele>2431.86</ele><time>2026-05-07T23:12:44.000Z</time></trkpt>
        <trkpt lat="29.3647749" lon="103.0175592"><ele>2430.71</ele><time>2026-05-07T23:12:50.000Z</time></trkpt>
        <trkpt lat="29.364849" lon="103.0174966"><ele>2429.76</ele><time>2026-05-07T23:12:56.000Z</time></trkpt>
        <trkpt lat="29.3649173" lon="103.0174041"><ele>2428.53</ele><time>2026-05-07T23:13:02.000Z</time></trkpt>
        <trkpt lat="29.3649918" lon="103.0173021"><ele>2426.84</ele><time>2026-05-07T23:13:08.000Z</time></trkpt>
        <trkpt lat="29.3650616" lon="103.017191"><ele>2425.32</ele><time>2026-05-07T23:13:14.000Z</time></trkpt>
        <trkpt lat="29.365136" lon="103.0170856"><ele>2423.68</ele><time>2026-05-07T23:13:20.000Z</time></trkpt>
        <trkpt lat="29.3652098" lon="103.0169684"><ele>2422.22</ele><time>2026-05-07T23:13:26.000Z</time></trkpt>
        <trkpt lat="29.3652596" lon="103.0168686"><ele>2420.92</ele><time>2026-05-07T23:13:30.000Z</time></trkpt>
        <trkpt lat="29.3653155" lon="103.016771"><ele>2420.18</ele><time>2026-05-07T23:13:36.000Z</time></trkpt>
        <trkpt lat="29.3653762" lon="103.0166787"><ele>2419.37</ele><time>2026-05-07T23:13:42.000Z</time></trkpt>
        <trkpt lat="29.3654566" lon="103.0165954"><ele>2418.7</ele><time>2026-05-07T23:13:48.000Z</time></trkpt>
        <trkpt lat="29.3655503" lon="103.0165275"><ele>2418.01</ele><time>2026-05-07T23:13:54.000Z</time></trkpt>
        <trkpt lat="29.3656491" lon="103.0164607"><ele>2417.15</ele><time>2026-05-07T23:14:00.000Z</time></trkpt>
        <trkpt lat="29.3657521" lon="103.0163942"><ele>2415.92</ele><time>2026-05-07T23:14:06.000Z</time></trkpt>
        <trkpt lat="29.3658482" lon="103.0163135"><ele>2413.85</ele><time>2026-05-07T23:14:12.000Z</time></trkpt>
        <trkpt lat="29.3659423" lon="103.0162258"><ele>2411.63</ele><time>2026-05-07T23:14:18.000Z</time></trkpt>
        <trkpt lat="29.3660443" lon="103.01616"><ele>2409.43</ele><time>2026-05-07T23:14:24.000Z</time></trkpt>
        <trkpt lat="29.3661482" lon="103.0160953"><ele>2407.52</ele><time>2026-05-07T23:14:30.000Z</time></trkpt>
        <trkpt lat="29.3662636" lon="103.0160389"><ele>2406.31</ele><time>2026-05-07T23:14:36.000Z</time></trkpt>
        <trkpt lat="29.3663578" lon="103.0159977"><ele>2405.32</ele><time>2026-05-07T23:14:40.000Z</time></trkpt>
        <trkpt lat="29.366451" lon="103.0159587"><ele>2404.62</ele><time>2026-05-07T23:14:44.000Z</time></trkpt>
        <trkpt lat="29.3665434" lon="103.0159256"><ele>2404.22</ele><time>2026-05-07T23:14:48.000Z</time></trkpt>
        <trkpt lat="29.3666421" lon="103.0159402"><ele>2404.13</ele><time>2026-05-07T23:14:54.000Z</time></trkpt>
        <trkpt lat="29.3667485" lon="103.0159527"><ele>2404.46</ele><time>2026-05-07T23:15:02.000Z</time></trkpt>
        <trkpt lat="29.3668587" lon="103.015964"><ele>2404.74</ele><time>2026-05-07T23:15:10.000Z</time></trkpt>
        <trkpt lat="29.3669748" lon="103.0159646"><ele>2404.81</ele><time>2026-05-07T23:15:18.000Z</time></trkpt>
        <trkpt lat="29.3670725" lon="103.0159593"><ele>2404.55</ele><time>2026-05-07T23:15:24.000Z</time></trkpt>
        <trkpt lat="29.367163" lon="103.0159708"><ele>2403.36</ele><time>2026-05-07T23:15:30.000Z</time></trkpt>
        <trkpt lat="29.3672327" lon="103.0159802"><ele>2401.79</ele><time>2026-05-07T23:15:44.000Z</time></trkpt>
        <trkpt lat="29.3672317" lon="103.0160594"><ele>2400.63</ele><time>2026-05-07T23:16:18.000Z</time></trkpt>
        <trkpt lat="29.3671651" lon="103.0161326"><ele>2399.67</ele><time>2026-05-07T23:16:58.000Z</time></trkpt>
        <trkpt lat="29.3671343" lon="103.0162348"><ele>2399.64</ele><time>2026-05-07T23:17:32.000Z</time></trkpt>
        <trkpt lat="29.3671343" lon="103.0162348"><ele>2399.64</ele><time>2026-05-07T23:18:15.000Z</time></trkpt>
        <trkpt lat="29.3670983" lon="103.0163483"><ele>2398.46</ele><time>2026-05-07T23:18:17.000Z</time></trkpt>
        <trkpt lat="29.3670983" lon="103.0163483"><ele>2398.46</ele><time>2026-05-07T23:19:32.000Z</time></trkpt>
        <trkpt lat="29.367055" lon="103.01644"><ele>2393.14</ele><time>2026-05-07T23:20:30.000Z</time></trkpt>
        <trkpt lat="29.3670244" lon="103.0165373"><ele>2388.74</ele><time>2026-05-07T23:21:10.000Z</time></trkpt>
        <trkpt lat="29.3669934" lon="103.0166382"><ele>2383.99</ele><time>2026-05-07T23:22:00.000Z</time></trkpt>
        <trkpt lat="29.3669298" lon="103.0167164"><ele>2378.19</ele><time>2026-05-07T23:22:34.000Z</time></trkpt>
        <trkpt lat="29.3668693" lon="103.016795"><ele>2372.6</ele><time>2026-05-07T23:22:58.000Z</time></trkpt>
        <trkpt lat="29.3667864" lon="103.0168484"><ele>2367.48</ele><time>2026-05-07T23:23:18.000Z</time></trkpt>
        <trkpt lat="29.3667147" lon="103.0169133"><ele>2362.97</ele><time>2026-05-07T23:23:42.000Z</time></trkpt>
        <trkpt lat="29.3666726" lon="103.017009"><ele>2358.38</ele><time>2026-05-07T23:24:20.000Z</time></trkpt>
        <trkpt lat="29.3666616" lon="103.01712"><ele>2352.75</ele><time>2026-05-07T23:24:42.000Z</time></trkpt>
        <trkpt lat="29.3666391" lon="103.017225"><ele>2346.79</ele><time>2026-05-07T23:25:04.000Z</time></trkpt>
        <trkpt lat="29.366605" lon="103.0173249"><ele>2341.08</ele><time>2026-05-07T23:25:58.000Z</time></trkpt>
        <trkpt lat="29.3666034" lon="103.0174274"><ele>2332.96</ele><time>2026-05-07T23:26:38.000Z</time></trkpt>
        <trkpt lat="29.3665639" lon="103.0175196"><ele>2325.71</ele><time>2026-05-07T23:27:14.000Z</time></trkpt>
        <trkpt lat="29.3665566" lon="103.0176216"><ele>2318.69</ele><time>2026-05-07T23:28:04.000Z</time></trkpt>
        <trkpt lat="29.3665258" lon="103.017719"><ele>2311.17</ele><time>2026-05-07T23:28:30.000Z</time></trkpt>
        <trkpt lat="29.3665543" lon="103.0178131"><ele>2304.38</ele><time>2026-05-07T23:28:54.000Z</time></trkpt>
        <trkpt lat="29.3666151" lon="103.0179024"><ele>2297.72</ele><time>2026-05-07T23:29:16.000Z</time></trkpt>
        <trkpt lat="29.3666723" lon="103.0179913"><ele>2291.65</ele><time>2026-05-07T23:29:36.000Z</time></trkpt>
        <trkpt lat="29.3667011" lon="103.0180919"><ele>2285.69</ele><time>2026-05-07T23:30:04.000Z</time></trkpt>
        <trkpt lat="29.3667092" lon="103.0182031"><ele>2279.5</ele><time>2026-05-07T23:30:30.000Z</time></trkpt>
        <trkpt lat="29.366718" lon="103.0183103"><ele>2273.91</ele><time>2026-05-07T23:30:54.000Z</time></trkpt>
        <trkpt lat="29.3667423" lon="103.0184201"><ele>2267.75</ele><time>2026-05-07T23:31:06.000Z</time></trkpt>
        <trkpt lat="29.3667844" lon="103.0185218"><ele>2262.61</ele><time>2026-05-07T23:31:24.000Z</time></trkpt>
        <trkpt lat="29.3668024" lon="103.0186291"><ele>2256.5</ele><time>2026-05-07T23:31:40.000Z</time></trkpt>
        <trkpt lat="29.366833" lon="103.0187312"><ele>2250.35</ele><time>2026-05-07T23:31:56.000Z</time></trkpt>
        <trkpt lat="29.3668864" lon="103.0188176"><ele>2243.79</ele><time>2026-05-07T23:32:12.000Z</time></trkpt>
        <trkpt lat="29.3669015" lon="103.0189146"><ele>2237.34</ele><time>2026-05-07T23:32:26.000Z</time></trkpt>
        <trkpt lat="29.3669023" lon="103.0190165"><ele>2231.17</ele><time>2026-05-07T23:32:50.000Z</time></trkpt>
        <trkpt lat="29.3669207" lon="103.0191189"><ele>2225.38</ele><time>2026-05-07T23:33:08.000Z</time></trkpt>
        <trkpt lat="29.3669569" lon="103.0192211"><ele>2220.35</ele><time>2026-05-07T23:33:28.000Z</time></trkpt>
        <trkpt lat="29.3669907" lon="103.0193269"><ele>2215.56</ele><time>2026-05-07T23:33:40.000Z</time></trkpt>
        <trkpt lat="29.3670301" lon="103.0194401"><ele>2211.7</ele><time>2026-05-07T23:33:52.000Z</time></trkpt>
        <trkpt lat="29.3670298" lon="103.0195458"><ele>2207.57</ele><time>2026-05-07T23:34:06.000Z</time></trkpt>
        <trkpt lat="29.3670795" lon="103.0196331"><ele>2202.59</ele><time>2026-05-07T23:34:20.000Z</time></trkpt>
        <trkpt lat="29.3671594" lon="103.0196826"><ele>2197.61</ele><time>2026-05-07T23:34:40.000Z</time></trkpt>
        <trkpt lat="29.3672036" lon="103.0197757"><ele>2192.49</ele><time>2026-05-07T23:34:50.000Z</time></trkpt>
        <trkpt lat="29.3672459" lon="103.0198698"><ele>2187.76</ele><time>2026-05-07T23:35:02.000Z</time></trkpt>
        <trkpt lat="29.3673156" lon="103.0199571"><ele>2183.09</ele><time>2026-05-07T23:35:24.000Z</time></trkpt>
        <trkpt lat="29.367382" lon="103.02004"><ele>2177.54</ele><time>2026-05-07T23:35:36.000Z</time></trkpt>
        <trkpt lat="29.3674396" lon="103.0201226"><ele>2173.01</ele><time>2026-05-07T23:35:56.000Z</time></trkpt>
        <trkpt lat="29.3675099" lon="103.0202167"><ele>2168.57</ele><time>2026-05-07T23:36:08.000Z</time></trkpt>
        <trkpt lat="29.3675511" lon="103.0203152"><ele>2164.37</ele><time>2026-05-07T23:36:26.000Z</time></trkpt>
        <trkpt lat="29.3676099" lon="103.0204009"><ele>2159.44</ele><time>2026-05-07T23:36:38.000Z</time></trkpt>
        <trkpt lat="29.3677016" lon="103.0204463"><ele>2154.65</ele><time>2026-05-07T23:36:52.000Z</time></trkpt>
        <trkpt lat="29.3677736" lon="103.0205176"><ele>2149.55</ele><time>2026-05-07T23:37:06.000Z</time></trkpt>
        <trkpt lat="29.3678465" lon="103.0205819"><ele>2144.67</ele><time>2026-05-07T23:37:18.000Z</time></trkpt>
        <trkpt lat="29.3679261" lon="103.020631"><ele>2139.95</ele><time>2026-05-07T23:37:30.000Z</time></trkpt>
        <trkpt lat="29.3679955" lon="103.020705"><ele>2135.15</ele><time>2026-05-07T23:37:46.000Z</time></trkpt>
        <trkpt lat="29.368042" lon="103.0208028"><ele>2130.05</ele><time>2026-05-07T23:37:58.000Z</time></trkpt>
        <trkpt lat="29.3680631" lon="103.0209185"><ele>2125.56</ele><time>2026-05-07T23:38:10.000Z</time></trkpt>
        <trkpt lat="29.3680875" lon="103.0210315"><ele>2121.32</ele><time>2026-05-07T23:38:24.000Z</time></trkpt>
        <trkpt lat="29.3681291" lon="103.0211353"><ele>2116.75</ele><time>2026-05-07T23:38:40.000Z</time></trkpt>
        <trkpt lat="29.3681879" lon="103.0212173"><ele>2111.78</ele><time>2026-05-07T23:38:56.000Z</time></trkpt>
        <trkpt lat="29.3682639" lon="103.021274"><ele>2106.89</ele><time>2026-05-07T23:39:02.000Z</time></trkpt>
        <trkpt lat="29.3683299" lon="103.0213501"><ele>2103.24</ele><time>2026-05-07T23:39:16.000Z</time></trkpt>
        <trkpt lat="29.3683645" lon="103.0214667"><ele>2099.69</ele><time>2026-05-07T23:39:28.000Z</time></trkpt>
        <trkpt lat="29.3683409" lon="103.0215705"><ele>2095.27</ele><time>2026-05-07T23:39:52.000Z</time></trkpt>
        <trkpt lat="29.3683403" lon="103.0216812"><ele>2090.63</ele><time>2026-05-07T23:40:08.000Z</time></trkpt>
        <trkpt lat="29.368312" lon="103.0217877"><ele>2086.15</ele><time>2026-05-07T23:40:24.000Z</time></trkpt>
        <trkpt lat="29.3683107" lon="103.0218971"><ele>2082.13</ele><time>2026-05-07T23:40:40.000Z</time></trkpt>
        <trkpt lat="29.3682963" lon="103.0220048"><ele>2078.24</ele><time>2026-05-07T23:40:54.000Z</time></trkpt>
        <trkpt lat="29.3682804" lon="103.0221093"><ele>2074.78</ele><time>2026-05-07T23:41:08.000Z</time></trkpt>
        <trkpt lat="29.3682807" lon="103.0222226"><ele>2070.79</ele><time>2026-05-07T23:41:20.000Z</time></trkpt>
        <trkpt lat="29.368271" lon="103.022308"><ele>2066.23</ele><time>2026-05-07T23:41:36.000Z</time></trkpt>
        <trkpt lat="29.368282" lon="103.0224065"><ele>2060.37</ele><time>2026-05-07T23:41:42.000Z</time></trkpt>
        <trkpt lat="29.3682882" lon="103.0225212"><ele>2055.87</ele><time>2026-05-07T23:41:48.000Z</time></trkpt>
        <trkpt lat="29.3683355" lon="103.0226168"><ele>2051.23</ele><time>2026-05-07T23:41:58.000Z</time></trkpt>
        <trkpt lat="29.3683849" lon="103.022717"><ele>2046.53</ele><time>2026-05-07T23:42:08.000Z</time></trkpt>
        <trkpt lat="29.3684352" lon="103.0228232"><ele>2041.87</ele><time>2026-05-07T23:42:16.000Z</time></trkpt>
        <trkpt lat="29.3684795" lon="103.0229429"><ele>2037.58</ele><time>2026-05-07T23:42:24.000Z</time></trkpt>
        <trkpt lat="29.3685107" lon="103.0230522"><ele>2033.16</ele><time>2026-05-07T23:42:30.000Z</time></trkpt>
        <trkpt lat="29.3685296" lon="103.0231681"><ele>2029.09</ele><time>2026-05-07T23:42:36.000Z</time></trkpt>
        <trkpt lat="29.3685997" lon="103.0232652"><ele>2024.92</ele><time>2026-05-07T23:42:42.000Z</time></trkpt>
        <trkpt lat="29.3686983" lon="103.0233038"><ele>2020.18</ele><time>2026-05-07T23:42:48.000Z</time></trkpt>
        <trkpt lat="29.3688026" lon="103.0233106"><ele>2016.15</ele><time>2026-05-07T23:42:54.000Z</time></trkpt>
        <trkpt lat="29.3688949" lon="103.0232531"><ele>2013.2</ele><time>2026-05-07T23:43:00.000Z</time></trkpt>
        <trkpt lat="29.3689849" lon="103.0231633"><ele>2012.13</ele><time>2026-05-07T23:43:08.000Z</time></trkpt>
        <trkpt lat="29.3690799" lon="103.0230721"><ele>2012.63</ele><time>2026-05-07T23:43:16.000Z</time></trkpt>
        <trkpt lat="29.369178" lon="103.0230077"><ele>2013.65</ele><time>2026-05-07T23:43:24.000Z</time></trkpt>
        <trkpt lat="29.3692695" lon="103.0229744"><ele>2014.7</ele><time>2026-05-07T23:43:39.000Z</time></trkpt>
        <trkpt lat="29.3692695" lon="103.0229744"><ele>2014.7</ele><time>2026-05-07T23:43:44.000Z</time></trkpt>
      </trkseg>
  </trk>
</gpx>